Data for 02/11/2012

Time Sea-Level Adjusted Pressure Absolute Pressure Temperature Relative Humidity Dew Point Precipitation   
(mb) (inHg) (mb) (inHg) (C) (F) (%) (C) (F) (mm) (in)
00:01 1025 30.27 854 25.22 -11 12.2 81 -13.7 7.3 -93 -3.661
00:02 1025 30.27 854 25.22 -11 12.2 81 -13.6 7.5 -93 -3.661
00:03 1025 30.27 854 25.22 -11 12.3 81 -13.7 7.4 -93 -3.661
00:04 1025 30.27 854 25.22 -11 12.2 81 -13.7 7.4 -93 -3.661
00:05 1025 30.27 854 25.22 -11 12.1 81 -13.6 7.4 -93 -3.661
00:06 1025 30.27 854 25.22 -11 12.2 81 -13.7 7.4 -93 -3.661
00:07 1025 30.27 854 25.22 -11.1 12.1 81 -13.7 7.4 -93 -3.661
00:08 1025 30.27 854 25.22 -11.1 12.1 81 -13.7 7.4 -93 -3.661
00:09 1025 30.27 854 25.22 -11.1 12.1 81 -13.8 7.2 -93 -3.661
00:10 1025 30.27 854 25.22 -11.1 12.1 81 -13.7 7.3 -93 -3.661
00:11 1025 30.27 854 25.22 -11.1 12.1 80 -13.8 7.1 -93 -3.661
00:12 1025 30.27 854 25.22 -11.1 12.1 80 -13.9 7.1 -93 -3.661
00:13 1025 30.27 854 25.22 -11.1 12.1 81 -13.8 7.2 -93 -3.661
00:14 1025 30.27 854 25.22 -11.1 12 81 -13.8 7.2 -93 -3.661
00:15 1024 30.24 854 25.22 -11.1 12 81 -13.8 7.2 -93 -3.661
00:16 1025 30.27 854 25.22 -11.1 12 81 -13.7 7.3 -93 -3.661
00:17 1025 30.27 854 25.22 -11.1 12.1 81 -13.8 7.2 -93 -3.661
00:18 1025 30.27 854 25.22 -11 12.1 81 -13.7 7.4 -93 -3.661
00:19 1025 30.27 854 25.22 -11 12.2 81 -13.7 7.4 -93 -3.661
00:20 1025 30.27 854 25.22 -11 12.2 81 -13.6 7.6 -93 -3.661
00:21 1025 30.27 854 25.22 -11 12.2 80 -13.8 7.2 -93 -3.661
00:22 1025 30.27 854 25.22 -11.1 12.1 81 -13.8 7.2 -93 -3.661
00:23 1025 30.27 854 25.22 -11 12.1 80 -13.8 7.2 -93 -3.661
00:24 1025 30.27 854 25.22 -11.1 12.1 80 -13.8 7.1 -93 -3.661
00:25 1024 30.24 854 25.22 -11 12.2 80 -13.8 7.2 -93 -3.661
00:26 1025 30.27 854 25.22 -11 12.2 81 -13.7 7.3 -93 -3.661
00:27 1025 30.27 854 25.22 -11.1 12.1 80 -13.8 7.1 -93 -3.661
00:28 1025 30.27 854 25.22 -11.1 12.1 80 -13.8 7.1 -93 -3.661
00:29 1025 30.27 854 25.22 -11.1 12 80 -13.9 7 -93 -3.661
00:30 1025 30.27 854 25.22 -11.1 11.9 80 -13.9 7 -93 -3.661
00:31 1025 30.27 854 25.22 -11.2 11.9 80 -13.9 7 -93 -3.661
00:32 1025 30.27 854 25.22 -11.2 11.9 80 -13.9 7 -93 -3.661
00:33 1024 30.24 854 25.22 -11.2 11.9 80 -14 6.8 -93.1 -3.665
00:34 1024 30.24 854 25.22 -11.2 11.9 80 -14 6.9 -93.1 -3.665
00:35 1024 30.24 854 25.22 -11.2 11.9 80 -13.9 6.9 -93.1 -3.665
00:36 1024 30.24 854 25.22 -11.2 11.8 81 -13.9 7 -93.1 -3.665
00:37 1025 30.27 854 25.22 -11.2 11.8 81 -13.9 7 -93.1 -3.665
00:38 1025 30.27 854 25.22 -11.2 11.8 81 -13.9 7 -93.1 -3.665
00:39 1025 30.27 854 25.22 -11.2 11.8 81 -13.9 7 -93.1 -3.665
00:40 1024 30.24 854 25.22 -11.2 11.8 81 -13.9 6.9 -93.1 -3.665
00:41 1024 30.24 854 25.22 -11.2 11.8 80 -14 6.8 -93.1 -3.665
00:42 1024 30.24 854 25.22 -11.2 11.8 80 -14 6.8 -93.1 -3.665
00:43 1024 30.24 854 25.22 -11.2 11.8 80 -14 6.8 -93.1 -3.665
00:44 1024 30.24 854 25.22 -11.2 11.8 80 -14 6.8 -93.1 -3.665
00:45 1025 30.27 854 25.22 -11.2 11.8 80 -14 6.7 -93.1 -3.665
00:46 1024 30.24 854 25.22 -11.2 11.8 80 -14 6.8 -93.1 -3.665
00:47 1024 30.24 854 25.22 -11.3 11.7 80 -14.1 6.7 -93.1 -3.665
00:48 1024 30.24 854 25.22 -11.3 11.7 80 -14 6.8 -93.1 -3.665
00:49 1024 30.24 854 25.22 -11.2 11.8 80 -14 6.8 -93.1 -3.665
00:50 1025 30.27 854 25.22 -11.2 11.8 81 -13.9 7 -93.1 -3.665
00:51 1025 30.27 854 25.22 -11.2 11.8 81 -13.9 6.9 -93.1 -3.665
00:52 1024 30.24 854 25.22 -11.2 11.8 81 -13.9 6.9 -93.1 -3.665
00:53 1024 30.24 854 25.22 -11.2 11.8 80 -14 6.8 -93.1 -3.665
00:54 1024 30.24 854 25.22 -11.2 11.8 80 -14 6.8 -93.1 -3.665
00:55 1024 30.24 854 25.22 -11.3 11.8 81 -14 6.9 -93.1 -3.665
00:56 1024 30.24 854 25.22 -11.3 11.8 80 -14 6.8 -93.1 -3.665
00:57 1024 30.24 854 25.22 -11.3 11.7 80 -14 6.8 -93.1 -3.665
00:58 1024 30.24 853 25.19 -11.3 11.7 80 -14 6.8 -93.1 -3.665
00:59 1024 30.24 853 25.19 -11.3 11.7 80 -14.1 6.7 -93.1 -3.665
01:00 1024 30.24 853 25.19 -11.3 11.7 80 -14 6.8 -93.1 -3.665
01:01 1024 30.24 853 25.19 -11.3 11.6 81 -14 6.8 -93.1 -3.665
01:02 1024 30.24 853 25.19 -11.3 11.6 81 -13.9 6.9 -93.1 -3.665
01:03 1024 30.24 853 25.19 -11.3 11.6 81 -14 6.7 -93.1 -3.665
01:04 1024 30.24 853 25.19 -11.3 11.6 81 -14 6.8 -93.1 -3.665
01:05 1024 30.24 853 25.19 -11.3 11.7 81 -14 6.8 -93.1 -3.665
01:06 1024 30.24 853 25.19 -11.3 11.7 81 -14 6.9 -93.1 -3.665
01:07 1024 30.24 853 25.19 -11.3 11.7 81 -14 6.8 -93.1 -3.665
01:08 1024 30.24 853 25.19 -11.3 11.6 81 -14 6.8 -93.1 -3.665
01:09 1024 30.24 853 25.19 -11.3 11.6 82 -13.9 7 -93.1 -3.665
01:10 1024 30.24 853 25.19 -11.3 11.6 81 -14 6.9 -93.1 -3.665
01:11 1024 30.24 853 25.19 -11.3 11.7 81 -14 6.9 -93.1 -3.665
01:12 1024 30.24 853 25.19 -11.3 11.7 81 -14 6.9 -93.1 -3.665
01:13 1024 30.24 853 25.19 -11.3 11.6 81 -14 6.7 -93.1 -3.665
01:14 1024 30.24 853 25.19 -11.3 11.7 80 -14 6.7 -93.1 -3.665
01:15 1024 30.24 853 25.19 -11.3 11.6 81 -14 6.7 -93.1 -3.665
01:16 1024 30.24 853 25.19 -11.3 11.6 81 -14 6.9 -93.1 -3.665
01:17 1024 30.24 853 25.19 -11.4 11.6 81 -14.1 6.7 -93.1 -3.665
01:18 1024 30.24 853 25.19 -11.3 11.6 81 -14 6.8 -93.1 -3.665
01:19 1024 30.24 853 25.19 -11.3 11.6 81 -14 6.9 -93.1 -3.665
01:20 1024 30.24 853 25.19 -11.3 11.6 81 -14 6.8 -93.1 -3.665
01:21 1024 30.24 853 25.19 -11.3 11.7 80 -14 6.8 -93.1 -3.665
01:22 1024 30.24 853 25.19 -11.3 11.8 81 -14 6.9 -93.1 -3.665
01:23 1024 30.24 853 25.19 -11.3 11.7 80 -14 6.8 -93.1 -3.665
01:24 1024 30.24 853 25.19 -11.2 11.8 80 -14 6.8 -93.1 -3.665
01:25 1024 30.24 853 25.19 -11.2 11.8 80 -14 6.9 -93.1 -3.665
01:26 1024 30.24 853 25.19 -11.2 11.8 80 -14 6.8 -93.1 -3.665
01:27 1024 30.24 853 25.19 -11.2 11.9 80 -14 6.7 -93.1 -3.665
01:28 1024 30.24 853 25.19 -11.2 11.9 80 -14.1 6.7 -93.1 -3.665
01:29 1024 30.24 853 25.19 -11.2 11.9 80 -14 6.8 -93.1 -3.665
01:30 1024 30.24 853 25.19 -11.2 11.9 80 -14.1 6.7 -93.1 -3.665
01:31 1024 30.24 853 25.19 -11.2 11.9 79 -14.1 6.6 -93.1 -3.665
01:32 1024 30.24 853 25.19 -11.2 11.9 80 -14.1 6.7 -93.1 -3.665
01:33 1024 30.24 853 25.19 -11.2 11.9 80 -14 6.8 -93.1 -3.665
01:34 1024 30.24 853 25.19 -11.2 11.8 79 -14.1 6.6 -93.1 -3.665
01:35 1024 30.24 853 25.19 -11.2 11.9 78 -14.2 6.4 -93.1 -3.665
01:36 1024 30.24 853 25.19 -11.2 11.8 79 -14.2 6.5 -93.1 -3.665
01:37 1024 30.24 853 25.19 -11.3 11.8 79 -14.1 6.6 -93.1 -3.665
01:38 1024 30.24 853 25.19 -11.2 11.8 79 -14.2 6.5 -93.1 -3.665
01:39 1024 30.24 853 25.19 -11.2 11.8 79 -14.2 6.5 -93.1 -3.665
01:40 1024 30.24 853 25.19 -11.2 11.8 79 -14.2 6.4 -93.1 -3.665
01:41 1024 30.24 853 25.19 -11.2 11.8 79 -14.2 6.5 -93.1 -3.665
01:42 1024 30.24 853 25.19 -11.2 11.8 79 -14.2 6.4 -93.1 -3.665
01:43 1024 30.24 853 25.19 -11.2 11.8 78 -14.2 6.4 -93.1 -3.665
01:44 1024 30.24 853 25.19 -11.2 11.9 78 -14.3 6.2 -93.1 -3.665
01:45 1024 30.24 853 25.19 -11.2 11.9 79 -14.2 6.4 -93.1 -3.665
01:46 1024 30.24 853 25.19 -11.2 11.9 78 -14.3 6.3 -93.1 -3.665
01:47 1024 30.24 853 25.19 -11.1 11.9 78 -14.3 6.2 -93.1 -3.665
01:48 1024 30.24 853 25.19 -11.1 11.9 77 -14.5 5.9 -93.1 -3.665
01:49 1024 30.24 853 25.19 -11.1 12 77 -14.4 6 -93.1 -3.665
01:50 1024 30.24 853 25.19 -11.1 12 77 -14.4 6.1 -93.1 -3.665
01:51 1024 30.24 853 25.19 -11.1 12.1 77 -14.4 6.1 -93.1 -3.665
01:52 1024 30.24 853 25.19 -11.1 12 76 -14.5 5.9 -93.1 -3.665
01:53 1024 30.24 853 25.19 -11.1 12 76 -14.5 5.9 -93.1 -3.665
01:54 1024 30.24 853 25.19 -11.1 12 76 -14.5 5.9 -93.1 -3.665
01:55 1024 30.24 853 25.19 -11.1 12 76 -14.5 5.9 -93.1 -3.665
01:56 1024 30.24 853 25.19 -11.1 12 76 -14.5 5.9 -93.1 -3.665
01:57 1024 30.24 853 25.19 -11.1 12.1 76 -14.5 5.9 -93.1 -3.665
01:58 1024 30.24 853 25.19 -11.1 12 75 -14.6 5.7 -93.1 -3.665
01:59 1024 30.24 853 25.19 -11.1 12.1 76 -14.5 5.8 -93.1 -3.665
02:00 1024 30.24 853 25.19 -11.1 12.1 75 -14.7 5.6 -93.1 -3.665
02:01 1024 30.24 853 25.19 -11 12.1 76 -14.5 5.9 -93.1 -3.665
02:02 1024 30.24 853 25.19 -11 12.1 75 -14.7 5.5 -93.2 -3.669
02:03 1024 30.24 853 25.19 -11 12.1 75 -14.6 5.7 -93.2 -3.669
02:04 1024 30.24 853 25.19 -11 12.2 75 -14.6 5.6 -93.2 -3.669
02:05 1024 30.24 853 25.19 -11 12.2 75 -14.6 5.8 -93.2 -3.669
02:06 1024 30.24 853 25.19 -11 12.2 75 -14.7 5.6 -93.2 -3.669
02:07 1024 30.24 853 25.19 -11 12.2 74 -14.7 5.5 -93.2 -3.669
02:08 1024 30.24 853 25.19 -10.9 12.3 75 -14.5 5.8 -93.2 -3.669
02:09 1024 30.24 853 25.19 -10.9 12.4 74 -14.6 5.6 -93.2 -3.669
02:10 1024 30.24 853 25.19 -10.9 12.5 74 -14.6 5.7 -93.2 -3.669
02:11 1024 30.24 853 25.19 -10.8 12.5 74 -14.6 5.7 -93.2 -3.669
02:12 1024 30.24 853 25.19 -10.8 12.5 73 -14.7 5.5 -93.2 -3.669
02:13 1024 30.24 853 25.19 -10.8 12.5 73 -14.8 5.4 -93.2 -3.669
02:14 1024 30.24 853 25.19 -10.8 12.6 73 -14.8 5.4 -93.2 -3.669
02:15 1024 30.24 853 25.19 -10.8 12.5 74 -14.6 5.7 -93.2 -3.669
02:16 1024 30.24 853 25.19 -10.8 12.6 73 -14.8 5.3 -93.2 -3.669
02:17 1024 30.24 853 25.19 -10.8 12.6 73 -14.8 5.3 -93.2 -3.669
02:18 1024 30.24 853 25.19 -10.8 12.5 72 -14.8 5.3 -93.2 -3.669
02:19 1024 30.24 853 25.19 -10.8 12.6 72 -14.8 5.3 -93.2 -3.669
02:20 1024 30.24 853 25.19 -10.8 12.6 72 -14.8 5.3 -93.2 -3.669
02:21 1024 30.24 853 25.19 -10.8 12.6 72 -14.8 5.3 -93.2 -3.669
02:22 1024 30.24 853 25.19 -10.8 12.6 72 -15 5.1 -93.2 -3.669
02:23 1024 30.24 853 25.19 -10.8 12.6 72 -14.9 5.2 -93.2 -3.669
02:24 1024 30.24 853 25.19 -10.8 12.6 72 -14.9 5.2 -93.2 -3.669
02:25 1024 30.24 853 25.19 -10.8 12.5 72 -14.9 5.2 -93.2 -3.669
02:26 1024 30.24 853 25.19 -10.8 12.5 72 -14.9 5.2 -93.2 -3.669
02:27 1024 30.24 853 25.19 -10.8 12.6 73 -14.8 5.3 -93.2 -3.669
02:28 1024 30.24 853 25.19 -10.8 12.6 72 -14.9 5.2 -93.2 -3.669
02:29 1024 30.24 853 25.19 -10.8 12.6 72 -14.9 5.2 -93.2 -3.669
02:30 1024 30.24 853 25.19 -10.8 12.7 72 -14.8 5.3 -93.3 -3.673
02:31 1024 30.24 853 25.19 -10.8 12.6 71 -15 5 -93.3 -3.673
02:32 1024 30.24 853 25.19 -10.8 12.5 72 -14.9 5.2 -93.2 -3.669
02:33 1024 30.24 853 25.19 -10.9 12.5 73 -14.8 5.3 -93.3 -3.673
02:34 1024 30.24 853 25.19 -10.8 12.5 72 -14.9 5.2 -93.3 -3.673
02:35 1024 30.24 853 25.19 -10.9 12.5 73 -14.8 5.3 -93.3 -3.673
02:36 1024 30.24 853 25.19 -10.9 12.5 73 -14.9 5.2 -93.3 -3.673
02:37 1024 30.24 853 25.19 -10.9 12.5 72 -15 5.1 -93.3 -3.673
02:38 1024 30.24 853 25.19 -10.8 12.5 72 -14.9 5.1 -93.3 -3.673
02:39 1024 30.24 853 25.19 -10.9 12.4 73 -14.9 5.2 -93.3 -3.673
02:40 1024 30.24 853 25.19 -10.9 12.4 74 -14.7 5.5 -93.3 -3.673
02:41 1024 30.24 853 25.19 -10.9 12.4 73 -14.8 5.3 -93.3 -3.673
02:42 1024 30.24 853 25.19 -10.9 12.5 73 -14.8 5.3 -93.3 -3.673
02:43 1024 30.24 853 25.19 -10.9 12.5 74 -14.7 5.6 -93.3 -3.673
02:44 1024 30.24 853 25.19 -10.8 12.5 74 -14.7 5.6 -93.3 -3.673
02:45 1024 30.24 853 25.19 -10.8 12.6 72 -14.9 5.2 -93.3 -3.673
02:46 1024 30.24 853 25.19 -10.8 12.6 72 -14.8 5.3 -93.3 -3.673
02:47 1024 30.24 853 25.19 -10.8 12.5 72 -14.9 5.2 -93.3 -3.673
02:48 1024 30.24 853 25.19 -10.8 12.5 73 -14.8 5.4 -93.3 -3.673
02:49 1024 30.24 853 25.19 -10.8 12.5 72 -14.9 5.2 -93.3 -3.673
02:50 1024 30.24 853 25.19 -10.8 12.5 73 -14.9 5.2 -93.3 -3.673
02:51 1024 30.24 853 25.19 -10.8 12.5 73 -14.8 5.3 -93.3 -3.673
02:52 1024 30.24 853 25.19 -10.9 12.4 72 -14.9 5.1 -93.3 -3.673
02:53 1024 30.24 853 25.19 -10.8 12.5 73 -14.9 5.2 -93.3 -3.673
02:54 1024 30.24 853 25.19 -10.8 12.6 72 -14.8 5.3 -93.3 -3.673
02:55 1024 30.24 853 25.19 -10.8 12.6 72 -14.9 5.2 -93.3 -3.673
02:56 1024 30.24 853 25.19 -10.7 12.7 73 -14.8 5.4 -93.3 -3.673
02:57 1024 30.24 853 25.19 -10.7 12.7 73 -14.7 5.5 -93.3 -3.673
02:58 1024 30.24 853 25.19 -10.7 12.7 72 -14.8 5.3 -93.3 -3.673
02:59 1024 30.24 853 25.19 -10.7 12.7 72 -14.8 5.4 -93.3 -3.673
03:00 1024 30.24 853 25.19 -10.8 12.6 73 -14.8 5.4 -93.3 -3.673
03:01 1024 30.24 853 25.19 -10.8 12.7 72 -14.9 5.3 -93.3 -3.673
03:02 1024 30.24 853 25.19 -10.7 12.7 72 -14.8 5.3 -93.3 -3.673
03:03 1024 30.24 853 25.19 -10.7 12.8 72 -14.9 5.2 -93.3 -3.673
03:04 1024 30.24 853 25.19 -10.7 12.7 71 -15 5.1 -93.3 -3.673
03:05 1024 30.24 853 25.19 -10.7 12.7 72 -14.8 5.4 -93.3 -3.673
03:06 1024 30.24 853 25.19 -10.7 12.7 72 -14.9 5.2 -93.3 -3.673
03:07 1024 30.24 853 25.19 -10.7 12.7 72 -14.8 5.3 -93.3 -3.673
03:08 1024 30.24 853 25.19 -10.8 12.6 72 -14.8 5.3 -93.3 -3.673
03:09 1024 30.24 853 25.19 -10.7 12.7 72 -14.9 5.2 -93.3 -3.673
03:10 1024 30.24 853 25.19 -10.8 12.7 72 -14.8 5.3 -93.3 -3.673
03:11 1024 30.24 853 25.19 -10.8 12.7 72 -14.9 5.3 -93.3 -3.673
03:12 1024 30.24 853 25.19 -10.8 12.6 72 -15 5.1 -93.3 -3.673
03:13 1024 30.24 853 25.19 -10.8 12.6 71 -15 5 -93.3 -3.673
03:14 1024 30.24 853 25.19 -10.8 12.6 72 -14.8 5.3 -93.3 -3.673
03:15 1024 30.24 853 25.19 -10.8 12.6 72 -14.9 5.2 -93.3 -3.673
03:16 1024 30.24 853 25.19 -10.7 12.7 71 -15 5 -93.3 -3.673
03:17 1024 30.24 853 25.19 -10.8 12.6 72 -14.9 5.2 -93.3 -3.673
03:18 1024 30.24 853 25.19 -10.8 12.6 72 -14.9 5.2 -93.3 -3.673
03:19 1024 30.24 853 25.19 -10.8 12.5 72 -15 5 -93.3 -3.673
03:20 1024 30.24 853 25.19 -10.8 12.5 72 -15 5 -93.3 -3.673
03:21 1024 30.24 853 25.19 -10.9 12.5 73 -14.8 5.3 -93.3 -3.673
03:22 1024 30.24 853 25.19 -10.9 12.4 73 -14.9 5.2 -93.3 -3.673
03:23 1024 30.24 853 25.19 -10.9 12.4 72 -15 5 -93.3 -3.673
03:24 1024 30.24 853 25.19 -10.9 12.5 72 -14.9 5.2 -93.3 -3.673
03:25 1024 30.24 853 25.19 -10.9 12.4 72 -14.9 5.1 -93.3 -3.673
03:26 1024 30.24 853 25.19 -10.9 12.5 72 -14.9 5.1 -93.3 -3.673
03:27 1024 30.24 853 25.19 -10.9 12.4 72 -15 5 -93.3 -3.673
03:28 1024 30.24 853 25.19 -10.8 12.5 73 -14.8 5.3 -93.3 -3.673
03:29 1024 30.24 853 25.19 -10.8 12.5 72 -14.9 5.1 -93.3 -3.673
03:30 1024 30.24 853 25.19 -10.8 12.5 72 -14.9 5.2 -93.3 -3.673
03:31 1024 30.24 853 25.19 -10.9 12.5 72 -15 5 -93.3 -3.673
03:32 1024 30.24 853 25.19 -10.8 12.5 72 -14.9 5.3 -93.3 -3.673
03:33 1024 30.24 853 25.19 -10.8 12.5 72 -14.9 5.2 -93.3 -3.673
03:34 1024 30.24 853 25.19 -10.9 12.4 72 -14.9 5.1 -93.3 -3.673
03:35 1024 30.24 853 25.19 -10.8 12.5 72 -14.9 5.2 -93.3 -3.673
03:36 1024 30.24 853 25.19 -10.8 12.6 73 -14.8 5.4 -93.3 -3.673
03:37 1024 30.24 853 25.19 -10.8 12.6 72 -14.8 5.3 -93.3 -3.673
03:38 1024 30.24 853 25.19 -10.7 12.7 72 -14.9 5.3 -93.3 -3.673
03:39 1024 30.24 853 25.19 -10.8 12.6 73 -14.8 5.4 -93.3 -3.673
03:40 1024 30.24 853 25.19 -10.8 12.6 73 -14.8 5.3 -93.3 -3.673
03:41 1024 30.24 853 25.19 -10.8 12.5 73 -14.7 5.5 -93.3 -3.673
03:42 1024 30.24 853 25.19 -10.8 12.6 74 -14.7 5.6 -93.3 -3.673
03:43 1024 30.24 853 25.19 -10.8 12.6 74 -14.6 5.7 -93.3 -3.673
03:44 1024 30.24 853 25.19 -10.8 12.6 73 -14.8 5.4 -93.3 -3.673
03:45 1024 30.24 853 25.19 -10.8 12.5 73 -14.8 5.4 -93.3 -3.673
03:46 1024 30.24 853 25.19 -10.9 12.4 74 -14.7 5.5 -93.3 -3.673
03:47 1024 30.24 853 25.19 -10.9 12.5 73 -14.8 5.4 -93.3 -3.673
03:48 1024 30.24 853 25.19 -10.9 12.4 73 -14.8 5.4 -93.3 -3.673
03:49 1024 30.24 853 25.19 -10.9 12.3 73 -14.9 5.2 -93.3 -3.673
03:50 1024 30.24 853 25.19 -10.9 12.3 74 -14.8 5.4 -93.3 -3.673
03:51 1024 30.24 853 25.19 -11 12.3 74 -14.8 5.4 -93.3 -3.673
03:52 1024 30.24 853 25.19 -11 12.2 74 -14.8 5.3 -93.3 -3.673
03:53 1024 30.24 853 25.19 -11.1 12.1 74 -14.9 5.3 -93.3 -3.673
03:54 1024 30.24 853 25.19 -11.1 12.1 74 -14.8 5.4 -93.3 -3.673
03:55 1024 30.24 853 25.19 -11.1 12 74 -14.9 5.2 -93.3 -3.673
03:56 1024 30.24 853 25.19 -11.1 12.1 74 -14.8 5.3 -93.3 -3.673
03:57 1024 30.24 853 25.19 -11 12.2 74 -14.7 5.5 -93.3 -3.673
03:58 1024 30.24 853 25.19 -11 12.2 73 -14.9 5.2 -93.3 -3.673
03:59 1024 30.24 853 25.19 -11 12.2 73 -14.9 5.2 -93.3 -3.673
04:00 1024 30.24 853 25.19 -11 12.2 73 -14.9 5.1 -93.3 -3.673
04:01 1024 30.24 853 25.19 -11 12.2 73 -14.9 5.1 -93.3 -3.673
04:02 1024 30.24 853 25.19 -11 12.2 73 -14.9 5.2 -93.3 -3.673
04:03 1024 30.24 853 25.19 -11 12.2 73 -14.9 5.2 -93.3 -3.673
04:04 1024 30.24 853 25.19 -11 12.2 73 -14.9 5.2 -93.3 -3.673
04:05 1024 30.24 853 25.19 -11 12.2 73 -15 5.1 -93.3 -3.673
04:06 1024 30.24 853 25.19 -11 12.2 73 -15 5.1 -93.3 -3.673
04:07 1024 30.24 853 25.19 -11 12.2 73 -15 5.1 -93.3 -3.673
04:08 1024 30.24 853 25.19 -11.1 12.1 73 -15 5 -93.3 -3.673
04:09 1024 30.24 853 25.19 -11.1 12 73 -15 5.1 -93.3 -3.673
04:10 1024 30.24 853 25.19 -11.1 12 73 -15.1 4.9 -93.3 -3.673
04:11 1024 30.24 853 25.19 -11.1 12 73 -15.1 4.9 -93.3 -3.673
04:12 1024 30.24 853 25.19 -11.1 12.1 73 -15 5 -93.3 -3.673
04:13 1024 30.24 853 25.19 -11 12.2 73 -14.9 5.1 -93.3 -3.673
04:14 1024 30.24 853 25.19 -11 12.3 73 -14.9 5.1 -93.3 -3.673
04:15 1024 30.24 853 25.19 -10.9 12.4 72 -14.9 5.1 -93.3 -3.673
04:16 1024 30.24 853 25.19 -10.9 12.4 73 -14.8 5.3 -93.3 -3.673
04:17 1024 30.24 853 25.19 -10.8 12.5 72 -14.9 5.2 -93.3 -3.673
04:18 1024 30.24 853 25.19 -10.9 12.4 73 -14.9 5.2 -93.3 -3.673
04:19 1024 30.24 853 25.19 -10.9 12.3 73 -14.9 5.1 -93.3 -3.673
04:20 1024 30.24 853 25.19 -10.9 12.3 73 -14.9 5.1 -93.3 -3.673
04:21 1024 30.24 853 25.19 -11 12.3 73 -15 5.1 -93.3 -3.673
04:22 1024 30.24 853 25.19 -11 12.3 73 -14.9 5.2 -93.3 -3.673
04:23 1024 30.24 853 25.19 -11 12.2 73 -14.9 5.2 -93.3 -3.673
04:24 1024 30.24 853 25.19 -11 12.1 73 -14.9 5.2 -93.3 -3.673
04:25 1024 30.24 853 25.19 -11 12.2 73 -14.9 5.1 -93.3 -3.673
04:26 1024 30.24 853 25.19 -11 12.2 73 -14.9 5.2 -93.3 -3.673
04:27 1024 30.24 853 25.19 -11 12.2 72 -15.1 4.9 -93.3 -3.673
04:28 1024 30.24 853 25.19 -11 12.1 73 -14.9 5.1 -93.3 -3.673
04:29 1024 30.24 853 25.19 -11 12.2 73 -15 5 -93.3 -3.673
04:30 1024 30.24 853 25.19 -11 12.2 72 -15 4.9 -93.3 -3.673
04:31 1024 30.24 853 25.19 -11 12.2 72 -15.1 4.9 -93.3 -3.673
04:32 1024 30.24 853 25.19 -11 12.1 73 -15 5 -93.3 -3.673
04:33 1024 30.24 853 25.19 -11.1 12.1 73 -15 5 -93.3 -3.673
04:34 1024 30.24 853 25.19 -11.1 12.1 73 -15 5 -93.3 -3.673
04:35 1024 30.24 853 25.19 -11.1 12 73 -15.1 4.8 -93.3 -3.673
04:36 1024 30.24 853 25.19 -11.1 12.1 73 -15 5 -93.3 -3.673
04:37 1024 30.24 853 25.19 -11.1 12.1 73 -15 5 -93.3 -3.673
04:38 1024 30.24 853 25.19 -11 12.1 73 -15 5 -93.3 -3.673
04:39 1024 30.24 853 25.19 -11 12.3 72 -15.1 4.9 -93.3 -3.673
04:40 1024 30.24 853 25.19 -10.9 12.3 72 -15.1 4.8 -93.3 -3.673
04:41 1024 30.24 853 25.19 -10.9 12.4 72 -15 5 -93.3 -3.673
04:42 1024 30.24 853 25.19 -10.9 12.3 72 -15.1 4.8 -93.3 -3.673
04:43 1024 30.24 853 25.19 -10.9 12.3 72 -15 5 -93.3 -3.673
04:44 1024 30.24 853 25.19 -11 12.2 72 -15.1 4.8 -93.3 -3.673
04:45 1024 30.24 853 25.19 -11 12.3 72 -15.1 4.8 -93.3 -3.673
04:46 1024 30.24 853 25.19 -11 12.2 72 -15.1 4.9 -93.3 -3.673
04:47 1024 30.24 853 25.19 -11 12.1 73 -15 5 -93.3 -3.673
04:48 1024 30.24 853 25.19 -11 12.2 73 -15 5 -93.3 -3.673
04:49 1024 30.24 853 25.19 -11 12.2 72 -15.1 4.9 -93.3 -3.673
04:50 1024 30.24 853 25.19 -11 12.1 73 -15 5.1 -93.3 -3.673
04:51 1024 30.24 853 25.19 -11.1 12.1 73 -15 5 -93.3 -3.673
04:52 1024 30.24 853 25.19 -11.1 12.1 73 -15 5.1 -93.3 -3.673
04:53 1024 30.24 853 25.19 -11.1 12.1 73 -15.1 4.9 -93.3 -3.673
04:54 1024 30.24 853 25.19 -11.1 12.1 73 -15 5 -93.3 -3.673
04:55 1024 30.24 853 25.19 -11 12.1 73 -14.9 5.1 -93.3 -3.673
04:56 1024 30.24 853 25.19 -11 12.1 73 -15 5 -93.3 -3.673
04:57 1024 30.24 853 25.19 -11 12.2 73 -14.9 5.2 -93.3 -3.673
04:58 1024 30.24 853 25.19 -11 12.1 73 -15 5.1 -93.3 -3.673
04:59 1024 30.24 853 25.19 -11 12.2 73 -15 5 -93.3 -3.673
05:00 1024 30.24 853 25.19 -11 12.2 73 -15 5 -93.3 -3.673
05:01 1024 30.24 853 25.19 -11 12.3 72 -15.1 4.8 -93.3 -3.673
05:02 1024 30.24 853 25.19 -10.9 12.3 72 -15.1 4.9 -93.3 -3.673
05:03 1024 30.24 853 25.19 -11 12.2 72 -15 4.9 -93.3 -3.673
05:04 1024 30.24 853 25.19 -11 12.2 72 -15.1 4.8 -93.3 -3.673
05:05 1024 30.24 853 25.19 -11 12.2 72 -15.1 4.8 -93.3 -3.673
05:06 1024 30.24 853 25.19 -11.1 12.1 72 -15.1 4.9 -93.3 -3.673
05:07 1024 30.24 853 25.19 -11 12.2 72 -15.1 4.9 -93.3 -3.673
05:08 1024 30.24 853 25.19 -11 12.2 73 -15 5 -93.3 -3.673
05:09 1024 30.24 853 25.19 -11 12.1 73 -15 5 -93.3 -3.673
05:10 1024 30.24 853 25.19 -11 12.3 73 -14.9 5.1 -93.3 -3.673
05:11 1024 30.24 853 25.19 -11 12.3 72 -15.1 4.9 -93.3 -3.673
05:12 1024 30.24 853 25.19 -11 12.3 72 -15.1 4.9 -93.3 -3.673
05:13 1024 30.24 853 25.19 -11 12.2 73 -15 5 -93.3 -3.673
05:14 1023 30.21 853 25.19 -11 12.1 72 -15.1 4.8 -93.3 -3.673
05:15 1024 30.24 853 25.19 -11.1 12.1 73 -15 5 -93.3 -3.673
05:16 1023 30.21 853 25.19 -11.1 12 73 -15.1 4.9 -93.3 -3.673
05:17 1023 30.21 853 25.19 -11.1 12.1 72 -15.2 4.6 -93.3 -3.673
05:18 1023 30.21 853 25.19 -11.1 12.1 72 -15.1 4.8 -93.3 -3.673
05:19 1023 30.21 853 25.19 -11.1 12.1 72 -15.2 4.7 -93.3 -3.673
05:20 1023 30.21 853 25.19 -11.1 12 72 -15.2 4.7 -93.3 -3.673
05:21 1023 30.21 853 25.19 -11 12.1 72 -15.1 4.8 -93.3 -3.673
05:22 1023 30.21 853 25.19 -11 12.2 72 -15.2 4.7 -93.3 -3.673
05:23 1023 30.21 853 25.19 -10.9 12.3 72 -15.1 4.9 -93.3 -3.673
05:24 1023 30.21 853 25.19 -10.9 12.4 72 -15.1 4.9 -93.3 -3.673
05:25 1023 30.21 853 25.19 -10.9 12.4 72 -15 5 -93.3 -3.673
05:26 1023 30.21 852 25.16 -10.9 12.5 71 -15.1 4.9 -93.3 -3.673
05:27 1023 30.21 853 25.19 -10.9 12.5 72 -15 4.9 -93.3 -3.673
05:28 1023 30.21 852 25.16 -10.9 12.4 71 -15.1 4.8 -93.3 -3.673
05:29 1023 30.21 853 25.19 -10.9 12.4 72 -15 5 -93.3 -3.673
05:30 1023 30.21 853 25.19 -10.9 12.4 72 -15 5 -93.3 -3.673
05:31 1024 30.24 853 25.19 -10.9 12.4 72 -15 5.1 -93.3 -3.673
05:32 1024 30.24 853 25.19 -10.8 12.5 72 -15 5 -93.3 -3.673
05:33 1024 30.24 853 25.19 -10.9 12.5 72 -15 5 -93.3 -3.673
05:34 1024 30.24 853 25.19 -10.9 12.5 71 -15.1 4.8 -93.4 -3.677
05:35 1024 30.24 853 25.19 -10.9 12.4 71 -15.1 4.8 -93.4 -3.677
05:36 1023 30.21 853 25.19 -10.9 12.4 72 -15 5.1 -93.3 -3.673
05:37 1023 30.21 853 25.19 -10.9 12.3 72 -15 4.9 -93.3 -3.673
05:38 1023 30.21 853 25.19 -10.9 12.4 72 -15 5 -93.3 -3.673
05:39 1023 30.21 853 25.19 -10.9 12.3 71 -15.2 4.6 -93.3 -3.673
05:40 1023 30.21 853 25.19 -11 12.3 71 -15.2 4.7 -93.3 -3.673
05:41 1023 30.21 853 25.19 -11 12.3 72 -15.1 4.9 -93.3 -3.673
05:42 1023 30.21 853 25.19 -11 12.2 71 -15.2 4.6 -93.3 -3.673
05:43 1023 30.21 853 25.19 -11 12.2 72 -15.1 4.9 -93.3 -3.673
05:44 1023 30.21 853 25.19 -11 12.1 72 -15.1 4.7 -93.3 -3.673
05:45 1023 30.21 853 25.19 -11 12.2 72 -15.1 4.8 -93.3 -3.673
05:46 1023 30.21 853 25.19 -11 12.2 72 -15.2 4.7 -93.3 -3.673
05:47 1024 30.24 853 25.19 -11 12.1 72 -15.1 4.9 -93.3 -3.673
05:48 1023 30.21 853 25.19 -11 12.2 72 -15.2 4.7 -93.3 -3.673
05:49 1024 30.24 853 25.19 -11 12.2 72 -15 4.9 -93.3 -3.673
05:50 1023 30.21 853 25.19 -10.9 12.3 72 -15 4.9 -93.3 -3.673
05:51 1023 30.21 853 25.19 -10.9 12.4 71 -15.1 4.8 -93.3 -3.673
05:52 1023 30.21 853 25.19 -10.8 12.5 71 -15.2 4.7 -93.3 -3.673
05:53 1023 30.21 853 25.19 -10.8 12.5 71 -15.1 4.9 -93.3 -3.673
05:54 1023 30.21 853 25.19 -10.9 12.4 71 -15.2 4.7 -93.3 -3.673
05:55 1023 30.21 853 25.19 -10.9 12.5 71 -15.1 4.8 -93.3 -3.673
05:56 1023 30.21 853 25.19 -10.9 12.4 72 -15 4.9 -93.3 -3.673
05:57 1023 30.21 853 25.19 -10.9 12.4 72 -15.1 4.9 -93.3 -3.673
05:58 1023 30.21 852 25.16 -10.8 12.5 71 -15.1 4.9 -93.3 -3.673
05:59 1023 30.21 852 25.16 -10.8 12.6 71 -15.1 4.8 -93.3 -3.673
06:00 1023 30.21 852 25.16 -10.7 12.7 71 -15 5 -93.3 -3.673
06:01 1023 30.21 852 25.16 -10.7 12.7 71 -15 5 -93.3 -3.673
06:02 1023 30.21 853 25.19 -10.7 12.8 71 -14.9 5.1 -93.3 -3.673
06:03 1023 30.21 852 25.16 -10.7 12.7 71 -14.9 5.1 -93.3 -3.673
06:04 1023 30.21 853 25.19 -10.7 12.7 71 -15 4.9 -93.3 -3.673
06:05 1023 30.21 853 25.19 -10.9 12.5 72 -15 5 -93.3 -3.673
06:06 1023 30.21 853 25.19 -11 12.3 71 -15.2 4.6 -93.3 -3.673
06:07 1023 30.21 853 25.19 -11 12.2 72 -15.1 4.8 -93.3 -3.673
06:08 1023 30.21 852 25.16 -11 12.2 72 -15.1 4.8 -93.3 -3.673
06:09 1023 30.21 852 25.16 -11 12.2 72 -15.1 4.8 -93.3 -3.673
06:10 1023 30.21 852 25.16 -11 12.2 72 -15.1 4.8 -93.3 -3.673
06:11 1023 30.21 853 25.19 -11 12.2 72 -15.1 4.8 -93.3 -3.673
06:12 1023 30.21 853 25.19 -11.1 12.1 72 -15.1 4.8 -93.3 -3.673
06:13 1023 30.21 853 25.19 -11.1 12.1 72 -15.2 4.7 -93.4 -3.677
06:14 1023 30.21 853 25.19 -11.1 12 72 -15.2 4.7 -93.4 -3.677
06:15 1023 30.21 853 25.19 -11.1 12.1 72 -15.2 4.7 -93.4 -3.677
06:16 1023 30.21 853 25.19 -11 12.1 71 -15.3 4.5 -93.4 -3.677
06:17 1023 30.21 853 25.19 -11 12.2 71 -15.3 4.5 -93.4 -3.677
06:18 1023 30.21 853 25.19 -11 12.2 71 -15.3 4.5 -93.4 -3.677
06:19 1023 30.21 853 25.19 -11 12.3 72 -15.1 4.8 -93.4 -3.677
06:20 1023 30.21 853 25.19 -11 12.3 72 -15.1 4.8 -93.4 -3.677
06:21 1023 30.21 853 25.19 -11 12.3 71 -15.2 4.6 -93.4 -3.677
06:22 1023 30.21 853 25.19 -11 12.2 71 -15.2 4.6 -93.4 -3.677
06:23 1023 30.21 853 25.19 -11 12.2 71 -15.2 4.6 -93.4 -3.677
06:24 1023 30.21 853 25.19 -11 12.3 71 -15.2 4.6 -93.4 -3.677
06:25 1023 30.21 853 25.19 -10.9 12.3 71 -15.1 4.8 -93.4 -3.677
06:26 1023 30.21 853 25.19 -10.9 12.4 71 -15.1 4.7 -93.4 -3.677
06:27 1023 30.21 853 25.19 -10.9 12.3 71 -15.2 4.6 -93.4 -3.677
06:28 1023 30.21 853 25.19 -10.9 12.4 71 -15.1 4.9 -93.4 -3.677
06:29 1023 30.21 853 25.19 -10.9 12.5 71 -15.2 4.6 -93.4 -3.677
06:30 1023 30.21 853 25.19 -10.8 12.5 71 -15.1 4.8 -93.4 -3.677
06:31 1023 30.21 853 25.19 -10.8 12.5 71 -15.2 4.7 -93.4 -3.677
06:32 1023 30.21 853 25.19 -10.8 12.5 71 -15.2 4.7 -93.4 -3.677
06:33 1023 30.21 852 25.16 -10.9 12.5 71 -15.1 4.9 -93.4 -3.677
06:34 1023 30.21 852 25.16 -10.8 12.5 71 -15.2 4.7 -93.4 -3.677
06:35 1023 30.21 852 25.16 -10.8 12.6 71 -15.1 4.8 -93.4 -3.677
06:36 1023 30.21 853 25.19 -10.8 12.6 71 -15.1 4.9 -93.4 -3.677
06:37 1023 30.21 853 25.19 -10.8 12.6 71 -15.1 4.8 -93.4 -3.677
06:38 1023 30.21 853 25.19 -10.8 12.5 71 -15.2 4.7 -93.4 -3.677
06:39 1023 30.21 853 25.19 -10.8 12.5 70 -15.2 4.6 -93.4 -3.677
06:40 1023 30.21 853 25.19 -10.8 12.5 71 -15.1 4.8 -93.4 -3.677
06:41 1023 30.21 853 25.19 -10.8 12.5 71 -15.1 4.8 -93.5 -3.681
06:42 1023 30.21 853 25.19 -10.8 12.6 70 -15.2 4.6 -93.4 -3.677
06:43 1023 30.21 852 25.16 -10.8 12.5 71 -15.2 4.6 -93.5 -3.681
06:44 1023 30.21 852 25.16 -10.9 12.4 71 -15.2 4.7 -93.5 -3.681
06:45 1023 30.21 852 25.16 -10.9 12.5 70 -15.3 4.4 -93.5 -3.681
06:46 1023 30.21 852 25.16 -10.9 12.5 71 -15.2 4.6 -93.5 -3.681
06:47 1023 30.21 852 25.16 -10.9 12.4 71 -15.2 4.7 -93.5 -3.681
06:48 1023 30.21 852 25.16 -10.9 12.3 71 -15.2 4.6 -93.5 -3.681
06:49 1023 30.21 852 25.16 -10.9 12.3 71 -15.2 4.7 -93.5 -3.681
06:50 1023 30.21 852 25.16 -11 12.3 71 -15.2 4.6 -93.5 -3.681
06:51 1023 30.21 852 25.16 -10.9 12.3 71 -15.3 4.5 -93.5 -3.681
06:52 1023 30.21 852 25.16 -11 12.3 71 -15.2 4.7 -93.5 -3.681
06:53 1023 30.21 852 25.16 -10.9 12.3 72 -15 4.9 -93.5 -3.681
06:54 1023 30.21 852 25.16 -10.9 12.3 71 -15.1 4.7 -93.5 -3.681
06:55 1023 30.21 852 25.16 -10.9 12.3 71 -15.2 4.7 -93.5 -3.681
06:56 1023 30.21 852 25.16 -11 12.2 71 -15.3 4.4 -93.5 -3.681
06:57 1023 30.21 852 25.16 -11 12.2 72 -15.2 4.7 -93.5 -3.681
06:58 1023 30.21 852 25.16 -11 12.2 72 -15.1 4.8 -93.5 -3.681
06:59 1023 30.21 852 25.16 -11 12.1 72 -15.2 4.6 -93.5 -3.681
07:00 1023 30.21 852 25.16 -11 12.1 71 -15.3 4.5 -93.5 -3.681
07:01 1023 30.21 852 25.16 -11 12.2 71 -15.3 4.4 -93.5 -3.681
07:02 1023 30.21 852 25.16 -11 12.2 71 -15.2 4.6 -93.5 -3.681
07:03 1023 30.21 852 25.16 -10.9 12.3 71 -15.3 4.5 -93.5 -3.681
07:04 1023 30.21 852 25.16 -10.9 12.3 70 -15.3 4.4 -93.5 -3.681
07:05 1023 30.21 852 25.16 -10.9 12.3 70 -15.4 4.4 -93.5 -3.681
07:06 1023 30.21 852 25.16 -11 12.3 70 -15.3 4.4 -93.5 -3.681
07:07 1023 30.21 852 25.16 -10.9 12.4 71 -15.2 4.6 -93.5 -3.681
07:08 1023 30.21 852 25.16 -11 12.3 71 -15.3 4.5 -93.5 -3.681
07:09 1023 30.21 852 25.16 -10.9 12.3 71 -15.3 4.5 -93.5 -3.681
07:10 1023 30.21 852 25.16 -10.9 12.3 71 -15.2 4.6 -93.5 -3.681
07:11 1023 30.21 852 25.16 -10.9 12.4 71 -15.2 4.6 -93.5 -3.681
07:12 1023 30.21 852 25.16 -10.9 12.3 70 -15.4 4.2 -93.5 -3.681
07:13 1023 30.21 852 25.16 -10.9 12.4 70 -15.3 4.5 -93.5 -3.681
07:14 1023 30.21 852 25.16 -10.9 12.4 70 -15.3 4.4 -93.5 -3.681
07:15 1023 30.21 852 25.16 -10.9 12.4 70 -15.3 4.4 -93.5 -3.681
07:16 1023 30.21 852 25.16 -10.9 12.4 70 -15.3 4.5 -93.5 -3.681
07:17 1023 30.21 852 25.16 -10.9 12.4 70 -15.3 4.4 -93.5 -3.681
07:18 1023 30.21 852 25.16 -10.9 12.4 70 -15.3 4.5 -93.5 -3.681
07:19 1023 30.21 852 25.16 -10.9 12.4 71 -15.2 4.6 -93.5 -3.681
07:20 1023 30.21 852 25.16 -10.9 12.4 71 -15.1 4.8 -93.5 -3.681
07:21 1023 30.21 852 25.16 -10.9 12.4 71 -15.2 4.7 -93.5 -3.681
07:22 1023 30.21 852 25.16 -10.8 12.5 71 -15.2 4.7 -93.5 -3.681
07:23 1023 30.21 852 25.16 -10.8 12.5 71 -15.2 4.7 -93.5 -3.681
07:24 1023 30.21 852 25.16 -10.8 12.6 70 -15.2 4.7 -93.5 -3.681
07:25 1023 30.21 852 25.16 -10.8 12.6 70 -15.3 4.5 -93.5 -3.681
07:26 1023 30.21 852 25.16 -10.8 12.5 71 -15.2 4.7 -93.5 -3.681
07:27 1023 30.21 852 25.16 -10.8 12.6 70 -15.2 4.6 -93.5 -3.681
07:28 1023 30.21 852 25.16 -10.8 12.6 71 -15.1 4.8 -93.5 -3.681
07:29 1023 30.21 852 25.16 -10.7 12.7 71 -15.1 4.8 -93.5 -3.681
07:30 1023 30.21 852 25.16 -10.8 12.6 71 -15.1 4.8 -93.5 -3.681
07:31 1023 30.21 852 25.16 -10.8 12.6 71 -15.1 4.8 -93.5 -3.681
07:32 1023 30.21 852 25.16 -10.8 12.6 70 -15.2 4.7 -93.5 -3.681
07:33 1023 30.21 852 25.16 -10.8 12.5 71 -15.1 4.9 -93.5 -3.681
07:34 1023 30.21 852 25.16 -10.8 12.6 71 -15 4.9 -93.5 -3.681
07:35 1023 30.21 852 25.16 -10.8 12.7 71 -15.1 4.8 -93.5 -3.681
07:36 1023 30.21 852 25.16 -10.8 12.6 71 -15 5 -93.5 -3.681
07:37 1023 30.21 852 25.16 -10.8 12.6 71 -15 4.9 -93.5 -3.681
07:38 1023 30.21 852 25.16 -10.8 12.7 71 -15 5 -93.5 -3.681
07:39 1023 30.21 852 25.16 -10.7 12.7 70 -15.2 4.7 -93.5 -3.681
07:40 1023 30.21 852 25.16 -10.7 12.7 70 -15.2 4.6 -93.5 -3.681
07:41 1023 30.21 852 25.16 -10.8 12.6 70 -15.2 4.6 -93.5 -3.681
07:42 1023 30.21 852 25.16 -10.8 12.5 71 -15.1 4.8 -93.5 -3.681
07:43 1023 30.21 852 25.16 -10.9 12.4 72 -15.1 4.9 -93.5 -3.681
07:44 1023 30.21 852 25.16 -10.9 12.5 71 -15.1 4.8 -93.5 -3.681
07:45 1023 30.21 852 25.16 -10.9 12.4 72 -15 4.9 -93.5 -3.681
07:46 1023 30.21 852 25.16 -10.9 12.4 71 -15.1 4.9 -93.5 -3.681
07:47 1023 30.21 852 25.16 -10.8 12.5 72 -15 5 -93.5 -3.681
07:48 1023 30.21 852 25.16 -10.8 12.5 71 -15.1 4.8 -93.5 -3.681
07:49 1023 30.21 852 25.16 -10.8 12.5 72 -15 5 -93.5 -3.681
07:50 1023 30.21 852 25.16 -10.8 12.5 71 -15.1 4.8 -93.5 -3.681
07:51 1023 30.21 852 25.16 -10.9 12.5 71 -15.1 4.8 -93.5 -3.681
07:52 1023 30.21 852 25.16 -10.9 12.4 71 -15.1 4.7 -93.5 -3.681
07:53 1023 30.21 852 25.16 -10.8 12.5 71 -15.2 4.7 -93.5 -3.681
07:54 1023 30.21 852 25.16 -10.9 12.5 71 -15.2 4.7 -93.5 -3.681
07:55 1023 30.21 852 25.16 -10.9 12.4 71 -15.1 4.8 -93.4 -3.677
07:56 1023 30.21 852 25.16 -10.9 12.4 71 -15.1 4.8 -93.4 -3.677
07:57 1023 30.21 852 25.16 -10.9 12.5 71 -15.2 4.7 -93.4 -3.677
07:58 1023 30.21 852 25.16 -10.8 12.5 71 -15.1 4.8 -93.4 -3.677
07:59 1023 30.21 852 25.16 -10.9 12.5 71 -15.1 4.9 -93.4 -3.677
08:00 1023 30.21 852 25.16 -10.9 12.5 72 -15 5 -93.4 -3.677
08:01 1023 30.21 852 25.16 -10.9 12.4 72 -15.1 4.9 -93.4 -3.677
08:02 1023 30.21 852 25.16 -10.9 12.4 71 -15.1 4.7 -93.4 -3.677
08:03 1023 30.21 852 25.16 -10.9 12.3 71 -15.2 4.7 -93.4 -3.677
08:04 1023 30.21 852 25.16 -10.9 12.3 72 -15.1 4.9 -93.4 -3.677
08:05 1023 30.21 852 25.16 -10.9 12.4 71 -15.2 4.6 -93.4 -3.677
08:06 1023 30.21 852 25.16 -10.9 12.3 71 -15.2 4.7 -93.4 -3.677
08:07 1023 30.21 852 25.16 -10.9 12.4 71 -15.2 4.7 -93.4 -3.677
08:08 1023 30.21 852 25.16 -10.9 12.4 71 -15.1 4.7 -93.4 -3.677
08:09 1023 30.21 852 25.16 -10.9 12.5 72 -14.9 5.1 -93.4 -3.677
08:10 1023 30.21 852 25.16 -10.9 12.5 72 -15 5.1 -93.4 -3.677
08:11 1023 30.21 852 25.16 -10.8 12.5 72 -15 5 -93.4 -3.677
08:12 1023 30.21 852 25.16 -10.8 12.5 71 -15.1 4.8 -93.4 -3.677
08:13 1023 30.21 852 25.16 -10.8 12.5 71 -15.1 4.8 -93.4 -3.677
08:14 1023 30.21 852 25.16 -10.8 12.5 71 -15.1 4.9 -93.4 -3.677
08:15 1023 30.21 852 25.16 -10.8 12.5 72 -14.9 5.1 -93.4 -3.677
08:16 1023 30.21 852 25.16 -10.8 12.6 71 -15.1 4.9 -93.4 -3.677
08:17 1023 30.21 852 25.16 -10.8 12.6 71 -15 5 -93.4 -3.677
08:18 1023 30.21 852 25.16 -10.8 12.7 71 -15 4.9 -93.4 -3.677
08:19 1023 30.21 852 25.16 -10.8 12.7 71 -15.1 4.9 -93.4 -3.677
08:20 1023 30.21 852 25.16 -10.7 12.7 71 -15 5 -93.4 -3.677
08:21 1023 30.21 852 25.16 -10.7 12.7 72 -14.9 5.2 -93.4 -3.677
08:22 1023 30.21 852 25.16 -10.7 12.7 71 -15 5.1 -93.4 -3.677
08:23 1023 30.21 852 25.16 -10.7 12.8 71 -15 5 -93.5 -3.681
08:24 1023 30.21 852 25.16 -10.7 12.8 71 -14.9 5.2 -93.5 -3.681
08:25 1023 30.21 852 25.16 -10.7 12.8 71 -14.9 5.1 -93.5 -3.681
08:26 1023 30.21 852 25.16 -10.6 12.9 71 -14.9 5.1 -93.5 -3.681
08:27 1023 30.21 852 25.16 -10.6 12.9 71 -14.8 5.3 -93.5 -3.681
08:28 1023 30.21 852 25.16 -10.6 12.9 71 -14.9 5.3 -93.5 -3.681
08:29 1023 30.21 852 25.16 -10.6 13 71 -14.9 5.2 -93.5 -3.681
08:30 1023 30.21 852 25.16 -10.6 13 70 -15 5.1 -93.5 -3.681
08:31 1023 30.21 852 25.16 -10.6 13 71 -14.9 5.1 -93.5 -3.681
08:32 1023 30.21 852 25.16 -10.6 13 72 -14.7 5.5 -93.5 -3.681
08:33 1023 30.21 852 25.16 -10.5 13.1 71 -14.8 5.3 -93.5 -3.681
08:34 1023 30.21 852 25.16 -10.5 13.1 71 -14.8 5.4 -93.5 -3.681
08:35 1023 30.21 852 25.16 -10.5 13.1 71 -14.8 5.4 -93.5 -3.681
08:36 1023 30.21 852 25.16 -10.5 13.2 71 -14.8 5.3 -93.5 -3.681
08:37 1023 30.21 852 25.16 -10.5 13.2 71 -14.8 5.3 -93.5 -3.681
08:38 1023 30.21 852 25.16 -10.5 13.2 71 -14.8 5.4 -93.5 -3.681
08:39 1023 30.21 852 25.16 -10.4 13.2 71 -14.7 5.6 -93.5 -3.681
08:40 1023 30.21 852 25.16 -10.4 13.2 71 -14.8 5.4 -93.5 -3.681
08:41 1023 30.21 852 25.16 -10.5 13.2 70 -14.9 5.2 -93.5 -3.681
08:42 1023 30.21 852 25.16 -10.5 13.2 71 -14.8 5.3 -93.4 -3.677
08:43 1023 30.21 852 25.16 -10.5 13.2 71 -14.8 5.4 -93.4 -3.677
08:44 1023 30.21 852 25.16 -10.5 13.2 71 -14.7 5.5 -93.4 -3.677
08:45 1023 30.21 852 25.16 -10.5 13.2 71 -14.8 5.4 -93.4 -3.677
08:46 1023 30.21 852 25.16 -10.5 13.1 70 -14.9 5.2 -93.4 -3.677
08:47 1023 30.21 852 25.16 -10.4 13.2 71 -14.8 5.3 -93.4 -3.677
08:48 1023 30.21 852 25.16 -10.4 13.3 71 -14.7 5.5 -93.4 -3.677
08:49 1023 30.21 852 25.16 -10.4 13.3 71 -14.7 5.6 -93.4 -3.677
08:50 1023 30.21 852 25.16 -10.4 13.4 70 -14.8 5.4 -93.4 -3.677
08:51 1023 30.21 852 25.16 -10.3 13.5 71 -14.6 5.7 -93.4 -3.677
08:52 1023 30.21 852 25.16 -10.2 13.6 70 -14.7 5.5 -93.4 -3.677
08:53 1023 30.21 852 25.16 -10.2 13.7 69 -14.8 5.4 -93.4 -3.677
08:54 1023 30.21 852 25.16 -10.2 13.7 68 -15 5.1 -93.4 -3.677
08:55 1023 30.21 852 25.16 -10.2 13.7 70 -14.7 5.5 -93.4 -3.677
08:56 1023 30.21 852 25.16 -10.1 13.8 69 -14.7 5.5 -93.5 -3.681
08:57 1023 30.21 852 25.16 -10.1 13.9 69 -14.7 5.5 -93.5 -3.681
08:58 1023 30.21 852 25.16 -10 13.9 68 -14.8 5.4 -93.4 -3.677
08:59 1023 30.21 852 25.16 -10 14 70 -14.5 5.8 -93.4 -3.677
09:00 1023 30.21 852 25.16 -10 14 69 -14.6 5.7 -93.4 -3.677
09:01 1023 30.21 852 25.16 -9.9 14.1 69 -14.6 5.7 -93.4 -3.677
09:02 1023 30.21 852 25.16 -9.9 14.1 69 -14.7 5.6 -93.4 -3.677
09:03 1023 30.21 852 25.16 -10 14.1 69 -14.7 5.6 -93.4 -3.677
09:04 1023 30.21 852 25.16 -9.9 14.1 69 -14.6 5.8 -93.4 -3.677
09:05 1023 30.21 852 25.16 -9.9 14.3 69 -14.6 5.8 -93.4 -3.677
09:06 1023 30.21 852 25.16 -9.8 14.3 69 -14.6 5.8 -93.4 -3.677
09:07 1023 30.21 852 25.16 -9.8 14.3 69 -14.5 5.8 -93.4 -3.677
09:08 1023 30.21 852 25.16 -9.9 14.3 69 -14.6 5.7 -93.4 -3.677
09:09 1023 30.21 852 25.16 -9.9 14.3 69 -14.5 5.9 -93.4 -3.677
09:10 1023 30.21 852 25.16 -9.8 14.4 69 -14.4 6 -93.4 -3.677
09:11 1023 30.21 852 25.16 -9.8 14.4 69 -14.5 5.9 -93.4 -3.677
09:12 1023 30.21 852 25.16 -9.8 14.4 69 -14.5 5.9 -93.4 -3.677
09:13 1023 30.21 852 25.16 -9.7 14.5 69 -14.5 6 -93.4 -3.677
09:14 1023 30.21 852 25.16 -9.7 14.5 68 -14.5 5.9 -93.4 -3.677
09:15 1023 30.21 852 25.16 -9.7 14.6 68 -14.5 5.8 -93.4 -3.677
09:16 1023 30.21 852 25.16 -9.6 14.7 69 -14.3 6.2 -93.4 -3.677
09:17 1023 30.21 852 25.16 -9.6 14.7 69 -14.3 6.2 -93.4 -3.677
09:18 1023 30.21 852 25.16 -9.6 14.8 67 -14.7 5.6 -93.4 -3.677
09:19 1023 30.21 852 25.16 -9.6 14.8 68 -14.5 6 -93.4 -3.677
09:20 1023 30.21 852 25.16 -9.5 14.9 69 -14.3 6.3 -93.4 -3.677
09:21 1023 30.21 852 25.16 -9.5 14.9 69 -14.2 6.5 -93.4 -3.677
09:22 1023 30.21 852 25.16 -9.4 15 68 -14.3 6.2 -93.4 -3.677
09:23 1023 30.21 852 25.16 -9.4 15.1 67 -14.5 6 -93.4 -3.677
09:24 1023 30.21 852 25.16 -9.5 15 67 -14.5 5.8 -93.4 -3.677
09:25 1023 30.21 852 25.16 -9.5 14.9 67 -14.6 5.7 -93.4 -3.677
09:26 1023 30.21 852 25.16 -9.5 14.9 69 -14.3 6.3 -93.4 -3.677
09:27 1023 30.21 852 25.16 -9.5 14.9 68 -14.3 6.2 -93.4 -3.677
09:28 1023 30.21 852 25.16 -9.5 15 67 -14.4 6 -93.4 -3.677
09:29 1023 30.21 852 25.16 -9.4 15 66 -14.6 5.7 -93.4 -3.677
09:30 1023 30.21 852 25.16 -9.5 15 68 -14.3 6.2 -93.4 -3.677
09:31 1023 30.21 852 25.16 -9.4 15.1 69 -14.1 6.7 -93.4 -3.677
09:32 1023 30.21 852 25.16 -9.4 15.2 68 -14.3 6.3 -93.4 -3.677
09:33 1023 30.21 852 25.16 -9.3 15.3 68 -14.1 6.6 -93.4 -3.677
09:34 1023 30.21 852 25.16 -9.3 15.2 68 -14.2 6.5 -93.4 -3.677
09:35 1023 30.21 852 25.16 -9.3 15.3 67 -14.2 6.4 -93.4 -3.677
09:36 1023 30.21 852 25.16 -9.2 15.4 68 -14.1 6.6 -93.4 -3.677
09:37 1023 30.21 852 25.16 -9.3 15.3 67 -14.4 6.1 -93.4 -3.677
09:38 1023 30.21 852 25.16 -9.2 15.4 67 -14.3 6.2 -93.4 -3.677
09:39 1023 30.21 852 25.16 -9.3 15.3 67 -14.3 6.2 -93.4 -3.677
09:40 1023 30.21 852 25.16 -9.3 15.3 68 -14.2 6.4 -93.3 -3.673
09:41 1023 30.21 852 25.16 -9.3 15.3 67 -14.2 6.4 -93.3 -3.673
09:42 1023 30.21 852 25.16 -9.3 15.3 67 -14.3 6.2 -93.3 -3.673
09:43 1023 30.21 852 25.16 -9.3 15.3 68 -14.1 6.6 -93.3 -3.673
09:44 1023 30.21 852 25.16 -9.3 15.3 68 -14.2 6.5 -93.3 -3.673
09:45 1023 30.21 852 25.16 -9.3 15.3 68 -14.2 6.5 -93.3 -3.673
09:46 1023 30.21 852 25.16 -9.2 15.4 67 -14.2 6.4 -93.3 -3.673
09:47 1023 30.21 852 25.16 -9.3 15.4 67 -14.3 6.2 -93.3 -3.673
09:48 1023 30.21 852 25.16 -9.3 15.4 67 -14.4 6.1 -93.3 -3.673
09:49 1023 30.21 852 25.16 -9.3 15.3 67 -14.4 6.1 -93.3 -3.673
09:50 1023 30.21 852 25.16 -9.3 15.2 67 -14.3 6.3 -93.3 -3.673
09:51 1023 30.21 852 25.16 -9.3 15.3 67 -14.4 6.1 -93.3 -3.673
09:52 1023 30.21 852 25.16 -9.3 15.2 67 -14.4 6 -93.3 -3.673
09:53 1023 30.21 852 25.16 -9.3 15.3 67 -14.2 6.4 -93.3 -3.673
09:54 1023 30.21 852 25.16 -9.3 15.4 67 -14.2 6.4 -93.3 -3.673
09:55 1023 30.21 852 25.16 -9.2 15.4 67 -14.3 6.3 -93.3 -3.673
09:56 1023 30.21 852 25.16 -9.2 15.4 67 -14.2 6.4 -93.3 -3.673
09:57 1023 30.21 852 25.16 -9.2 15.5 67 -14.3 6.3 -93.3 -3.673
09:58 1023 30.21 852 25.16 -9.2 15.5 67 -14.2 6.4 -93.3 -3.673
09:59 1023 30.21 852 25.16 -9.1 15.6 67 -14.1 6.6 -93.3 -3.673
10:00 1023 30.21 852 25.16 -9.1 15.7 67 -14.2 6.5 -93.3 -3.673
10:01 1023 30.21 852 25.16 -9.1 15.7 67 -14 6.7 -93.3 -3.673
10:02 1023 30.21 852 25.16 -8.9 15.9 66 -14.1 6.5 -93.3 -3.673
10:03 1023 30.21 852 25.16 -9 15.9 66 -14.3 6.3 -93.3 -3.673
10:04 1023 30.21 852 25.16 -9 15.8 66 -14.2 6.4 -93.3 -3.673
10:05 1023 30.21 852 25.16 -9.1 15.7 67 -14.2 6.4 -93.3 -3.673
10:06 1023 30.21 852 25.16 -9.1 15.6 66 -14.4 6.1 -93.3 -3.673
10:07 1023 30.21 852 25.16 -9.1 15.6 68 -14 6.9 -93.3 -3.673
10:08 1023 30.21 852 25.16 -9.1 15.6 66 -14.3 6.3 -93.3 -3.673
10:09 1023 30.21 852 25.16 -9.1 15.6 67 -14.1 6.5 -93.3 -3.673
10:10 1023 30.21 852 25.16 -9.1 15.6 68 -14.1 6.7 -93.3 -3.673
10:11 1023 30.21 852 25.16 -9.1 15.7 67 -14.1 6.6 -93.3 -3.673
10:12 1023 30.21 852 25.16 -9.1 15.7 66 -14.3 6.3 -93.3 -3.673
10:13 1023 30.21 852 25.16 -9.1 15.7 67 -14.1 6.6 -93.3 -3.673
10:14 1023 30.21 852 25.16 -9.1 15.6 66 -14.3 6.2 -93.3 -3.673
10:15 1023 30.21 852 25.16 -9.1 15.6 67 -14.2 6.5 -93.3 -3.673
10:16 1023 30.21 852 25.16 -9.1 15.7 66 -14.3 6.2 -93.3 -3.673
10:17 1023 30.21 852 25.16 -9.1 15.7 66 -14.2 6.4 -93.3 -3.673
10:18 1023 30.21 852 25.16 -9 15.8 67 -14 6.8 -93.3 -3.673
10:19 1023 30.21 852 25.16 -9 15.9 68 -13.9 6.9 -93.3 -3.673
10:20 1023 30.21 852 25.16 -8.9 16 67 -14 6.8 -93.3 -3.673
10:21 1023 30.21 852 25.16 -8.9 16 66 -14.2 6.5 -93.3 -3.673
10:22 1023 30.21 852 25.16 -8.9 16 66 -14.1 6.7 -93.3 -3.673
10:23 1023 30.21 852 25.16 -8.9 16 67 -14 6.8 -93.3 -3.673
10:24 1023 30.21 852 25.16 -8.9 16.1 66 -14.2 6.5 -93.3 -3.673
10:25 1023 30.21 852 25.16 -8.9 16 67 -13.9 7 -93.3 -3.673
10:26 1023 30.21 852 25.16 -8.9 16.1 66 -14.1 6.7 -93.3 -3.673
10:27 1023 30.21 852 25.16 -8.8 16.1 66 -14 6.8 -93.2 -3.669
10:28 1023 30.21 852 25.16 -8.8 16.2 66 -14.1 6.7 -93.2 -3.669
10:29 1023 30.21 852 25.16 -8.8 16.2 66 -14.1 6.6 -93.2 -3.669
10:30 1023 30.21 852 25.16 -8.8 16.2 67 -13.9 7 -93.2 -3.669
10:31 1023 30.21 852 25.16 -8.7 16.3 67 -13.8 7.2 -93.2 -3.669
10:32 1023 30.21 852 25.16 -8.7 16.4 65 -14.1 6.7 -93.2 -3.669
10:33 1023 30.21 852 25.16 -8.7 16.4 66 -14 6.8 -93.2 -3.669
10:34 1023 30.21 852 25.16 -8.7 16.4 67 -13.7 7.4 -93.2 -3.669
10:35 1023 30.21 852 25.16 -8.6 16.5 67 -13.8 7.2 -93.2 -3.669
10:36 1023 30.21 852 25.16 -8.6 16.5 65 -14 6.8 -93.2 -3.669
10:37 1023 30.21 852 25.16 -8.7 16.4 66 -14 6.9 -93.2 -3.669
10:38 1023 30.21 852 25.16 -8.7 16.4 65 -14.1 6.6 -93.2 -3.669
10:39 1023 30.21 852 25.16 -8.7 16.4 65 -14 6.7 -93.2 -3.669
10:40 1023 30.21 852 25.16 -8.6 16.5 66 -13.9 7 -93.2 -3.669
10:41 1023 30.21 852 25.16 -8.6 16.5 68 -13.6 7.5 -93.2 -3.669
10:42 1023 30.21 852 25.16 -8.5 16.6 66 -13.7 7.3 -93.2 -3.669
10:43 1023 30.21 852 25.16 -8.5 16.7 66 -13.8 7.2 -93.2 -3.669
10:44 1023 30.21 852 25.16 -8.5 16.8 67 -13.6 7.6 -93.2 -3.669
10:45 1023 30.21 852 25.16 -8.4 16.9 66 -13.7 7.3 -93.2 -3.669
10:46 1023 30.21 852 25.16 -8.4 17 65 -13.7 7.3 -93.2 -3.669
10:47 1023 30.21 852 25.16 -8.4 16.9 66 -13.6 7.5 -93.2 -3.669
10:48 1023 30.21 852 25.16 -8.4 16.8 67 -13.5 7.6 -93.2 -3.669
10:49 1023 30.21 852 25.16 -8.4 16.9 66 -13.7 7.4 -93.2 -3.669
10:50 1023 30.21 852 25.16 -8.3 17 67 -13.4 7.9 -93.2 -3.669
10:51 1023 30.21 852 25.16 -8.3 17.1 67 -13.5 7.8 -93.2 -3.669
10:52 1023 30.21 852 25.16 -8.2 17.2 68 -13.1 8.3 -93.2 -3.669
10:53 1023 30.21 852 25.16 -8.1 17.3 67 -13.3 8.1 -93.2 -3.669
10:54 1023 30.21 852 25.16 -8.2 17.3 66 -13.5 7.6 -93.2 -3.669
10:55 1023 30.21 852 25.16 -8.3 17.1 65 -13.7 7.3 -93.2 -3.669
10:56 1023 30.21 852 25.16 -8.4 16.9 65 -13.8 7.2 -93.2 -3.669
10:57 1023 30.21 852 25.16 -8.5 16.8 65 -13.9 7 -93.2 -3.669
10:58 1023 30.21 852 25.16 -8.5 16.7 65 -14 6.8 -93.2 -3.669
10:59 1023 30.21 852 25.16 -8.5 16.6 65 -13.9 7 -93.2 -3.669
11:00 1023 30.21 852 25.16 -8.5 16.7 67 -13.7 7.4 -93.1 -3.665
11:01 1023 30.21 852 25.16 -8.5 16.7 67 -13.5 7.6 -93.1 -3.665
11:02 1023 30.21 852 25.16 -8.5 16.7 65 -13.8 7.1 -93.1 -3.665
11:03 1023 30.21 852 25.16 -8.5 16.7 67 -13.6 7.5 -93.1 -3.665
11:04 1023 30.21 852 25.16 -8.4 16.8 68 -13.4 7.9 -93.1 -3.665
11:05 1023 30.21 852 25.16 -8.4 17 67 -13.5 7.7 -93.1 -3.665
11:06 1023 30.21 852 25.16 -8.3 17 66 -13.6 7.6 -93.1 -3.665
11:07 1023 30.21 852 25.16 -8.4 16.9 65 -13.8 7.1 -93.1 -3.665
11:08 1023 30.21 852 25.16 -8.4 16.8 66 -13.8 7.2 -93.1 -3.665
11:09 1023 30.21 852 25.16 -8.4 16.8 67 -13.5 7.7 -93.1 -3.665
11:10 1023 30.21 852 25.16 -8.4 16.8 66 -13.7 7.3 -93.1 -3.665
11:11 1023 30.21 852 25.16 -8.4 16.8 67 -13.5 7.7 -93.1 -3.665
11:12 1023 30.21 852 25.16 -8.3 17.1 66 -13.6 7.5 -93.1 -3.665
11:13 1023 30.21 852 25.16 -8.3 17.1 65 -13.7 7.3 -93.1 -3.665
11:14 1023 30.21 852 25.16 -8.3 17.1 66 -13.7 7.4 -93.1 -3.665
11:15 1023 30.21 852 25.16 -8.3 17 66 -13.6 7.5 -93.1 -3.665
11:16 1023 30.21 852 25.16 -8.3 17 66 -13.7 7.4 -93.1 -3.665
11:17 1023 30.21 852 25.16 -8.4 16.9 66 -13.7 7.3 -93.1 -3.665
11:18 1023 30.21 852 25.16 -8.4 16.9 65 -13.8 7.1 -93.1 -3.665
11:19 1023 30.21 852 25.16 -8.4 17 66 -13.7 7.3 -93.1 -3.665
11:20 1023 30.21 852 25.16 -8.3 17 65 -13.7 7.3 -93.1 -3.665
11:21 1023 30.21 852 25.16 -8.4 17 66 -13.5 7.6 -93.1 -3.665
11:22 1023 30.21 852 25.16 -8.3 17 66 -13.5 7.6 -93.1 -3.665
11:23 1023 30.21 852 25.16 -8.3 17.1 66 -13.5 7.6 -93.1 -3.665
11:24 1023 30.21 852 25.16 -8.3 17.1 66 -13.6 7.5 -93.1 -3.665
11:25 1023 30.21 852 25.16 -8.3 17.1 66 -13.6 7.6 -93.1 -3.665
11:26 1023 30.21 852 25.16 -8.3 17.1 66 -13.6 7.5 -93.1 -3.665
11:27 1023 30.21 852 25.16 -8.2 17.2 67 -13.4 7.9 -93.1 -3.665
11:28 1023 30.21 852 25.16 -8.1 17.4 66 -13.5 7.7 -93.1 -3.665
11:29 1023 30.21 852 25.16 -8.2 17.3 65 -13.6 7.5 -93.1 -3.665
11:30 1023 30.21 852 25.16 -8.2 17.2 66 -13.5 7.7 -93.1 -3.665
11:31 1023 30.21 852 25.16 -8.2 17.3 66 -13.4 7.8 -93.1 -3.665
11:32 1023 30.21 852 25.16 -8.1 17.5 67 -13.1 8.3 -93.1 -3.665
11:33 1023 30.21 852 25.16 -8 17.6 65 -13.5 7.7 -93.1 -3.665
11:34 1023 30.21 852 25.16 -8.1 17.4 66 -13.5 7.8 -93.1 -3.665
11:35 1023 30.21 852 25.16 -8 17.5 67 -13.2 8.3 -93.1 -3.665
11:36 1023 30.21 852 25.16 -8 17.6 65 -13.4 7.9 -93.1 -3.665
11:37 1023 30.21 852 25.16 -8 17.6 64 -13.7 7.3 -93.1 -3.665
11:38 1023 30.21 852 25.16 -8 17.6 65 -13.6 7.6 -93.1 -3.665
11:39 1023 30.21 852 25.16 -8 17.6 65 -13.5 7.8 -93.1 -3.665
11:40 1023 30.21 852 25.16 -8 17.6 65 -13.4 7.9 -93.1 -3.665
11:41 1023 30.21 852 25.16 -8 17.7 65 -13.4 8 -93.1 -3.665
11:42 1023 30.21 852 25.16 -7.9 17.8 66 -13.2 8.2 -93.1 -3.665
11:43 1023 30.21 852 25.16 -7.9 17.8 64 -13.5 7.7 -93.1 -3.665
11:44 1023 30.21 852 25.16 -7.8 17.9 66 -13.1 8.3 -93.1 -3.665
11:45 1023 30.21 852 25.16 -7.8 18.1 67 -12.8 9 -93 -3.661
11:46 1023 30.21 852 25.16 -7.7 18.2 63 -13.4 7.8 -93 -3.661
11:47 1023 30.21 852 25.16 -7.7 18.1 64 -13.5 7.8 -93 -3.661
11:48 1023 30.21 852 25.16 -7.7 18.1 66 -13 8.5 -93 -3.661
11:49 1023 30.21 852 25.16 -7.7 18.2 67 -12.9 8.8 -93 -3.661
11:50 1023 30.21 852 25.16 -7.6 18.3 65 -13.2 8.3 -93 -3.661
11:51 1023 30.21 852 25.16 -7.6 18.3 65 -13.2 8.3 -93 -3.661
11:52 1023 30.21 852 25.16 -7.6 18.3 67 -12.8 9 -93 -3.661
11:53 1022 30.18 852 25.16 -7.6 18.3 64 -13.2 8.2 -93 -3.661
11:54 1023 30.21 852 25.16 -7.6 18.3 65 -13.2 8.3 -93 -3.661
11:55 1022 30.18 852 25.16 -7.7 18.2 64 -13.3 8 -93 -3.661
11:56 1023 30.21 852 25.16 -7.7 18.1 67 -12.8 8.9 -93 -3.661
11:57 1022 30.18 852 25.16 -7.6 18.4 66 -12.8 8.9 -93 -3.661
11:58 1022 30.18 852 25.16 -7.5 18.5 65 -13 8.6 -93 -3.661
11:59 1022 30.18 852 25.16 -7.4 18.6 66 -12.8 8.9 -93 -3.661
12:00 1022 30.18 852 25.16 -7.4 18.7 64 -13.1 8.5 -93 -3.661
12:01 1022 30.18 852 25.16 -7.4 18.7 64 -13 8.6 -93 -3.661
12:02 1022 30.18 852 25.16 -7.4 18.7 63 -13.3 8.1 -93 -3.661
12:03 1022 30.18 852 25.16 -7.4 18.7 64 -13.1 8.4 -93 -3.661
12:04 1022 30.18 852 25.16 -7.3 18.8 64 -13.1 8.5 -93 -3.661
12:05 1022 30.18 851 25.13 -7.3 18.8 62 -13.4 7.9 -93 -3.661
12:06 1022 30.18 851 25.13 -7.3 18.9 65 -12.8 9 -93 -3.661
12:07 1022 30.18 851 25.13 -7.2 19 63 -13 8.5 -93 -3.661
12:08 1022 30.18 851 25.13 -7.1 19.1 65 -12.7 9.1 -93 -3.661
12:09 1022 30.18 851 25.13 -7.1 19.2 63 -13 8.6 -93 -3.661
12:10 1022 30.18 851 25.13 -7.2 19.1 64 -13 8.7 -93 -3.661
12:11 1022 30.18 851 25.13 -7.3 19 63 -13.2 8.3 -93 -3.661
12:12 1022 30.18 851 25.13 -7.3 18.8 64 -13 8.6 -93 -3.661
12:13 1022 30.18 851 25.13 -7.3 18.9 65 -12.8 9 -93 -3.661
12:14 1022 30.18 851 25.13 -7.3 19 66 -12.6 9.4 -92.9 -3.657
12:15 1022 30.18 851 25.13 -7.2 19 64 -13 8.6 -92.9 -3.657
12:16 1022 30.18 851 25.13 -7.3 18.9 64 -13 8.6 -92.9 -3.657
12:17 1022 30.18 851 25.13 -7.3 18.9 65 -12.7 9.1 -92.9 -3.657
12:18 1022 30.18 851 25.13 -7.3 18.9 64 -13.1 8.5 -92.9 -3.657
12:19 1022 30.18 851 25.13 -7.2 19 63 -13 8.6 -92.9 -3.657
12:20 1022 30.18 851 25.13 -7.2 19.1 64 -13 8.7 -92.9 -3.657
12:21 1022 30.18 851 25.13 -7.1 19.2 65 -12.7 9.1 -92.9 -3.657
12:22 1022 30.18 851 25.13 -7 19.4 65 -12.4 9.6 -92.9 -3.657
12:23 1022 30.18 851 25.13 -6.9 19.5 63 -12.9 8.7 -92.9 -3.657
12:24 1022 30.18 851 25.13 -6.9 19.6 61 -13.1 8.4 -92.9 -3.657
12:25 1022 30.18 851 25.13 -7 19.5 62 -13 8.6 -92.9 -3.657
12:26 1022 30.18 851 25.13 -7.1 19.3 63 -13 8.5 -92.9 -3.657
12:27 1022 30.18 851 25.13 -7.1 19.1 62 -13.3 8.1 -92.9 -3.657
12:28 1022 30.18 851 25.13 -7.2 19.1 65 -12.7 9.2 -92.9 -3.657
12:29 1022 30.18 851 25.13 -7.1 19.2 66 -12.4 9.6 -92.9 -3.657
12:30 1022 30.18 851 25.13 -7 19.3 65 -12.6 9.4 -92.9 -3.657
12:31 1022 30.18 851 25.13 -7 19.5 63 -12.9 8.9 -92.9 -3.657
12:32 1022 30.18 851 25.13 -6.8 19.7 63 -12.6 9.2 -92.9 -3.657
12:33 1022 30.18 851 25.13 -6.8 19.8 63 -12.7 9.2 -92.9 -3.657
12:34 1022 30.18 851 25.13 -6.8 19.8 62 -12.9 8.8 -92.8 -3.654
12:35 1022 30.18 851 25.13 -6.8 19.7 64 -12.6 9.3 -92.8 -3.654
12:36 1022 30.18 851 25.13 -6.8 19.8 62 -12.9 8.7 -92.8 -3.654
12:37 1022 30.18 851 25.13 -6.8 19.7 64 -12.5 9.4 -92.8 -3.654
12:38 1022 30.18 851 25.13 -6.8 19.7 64 -12.6 9.4 -92.8 -3.654
12:39 1022 30.18 851 25.13 -6.8 19.8 64 -12.6 9.4 -92.8 -3.654
12:40 1022 30.18 851 25.13 -6.7 19.9 63 -12.7 9.1 -92.8 -3.654
12:41 1022 30.18 851 25.13 -6.7 20 65 -12.3 9.9 -92.8 -3.654
12:42 1022 30.18 851 25.13 -6.6 20.2 63 -12.4 9.6 -92.8 -3.654
12:43 1022 30.18 851 25.13 -6.5 20.4 63 -12.5 9.6 -92.8 -3.654
12:44 1022 30.18 851 25.13 -6.3 20.6 64 -12.1 10.1 -92.8 -3.654
12:45 1022 30.18 851 25.13 -6.2 20.8 62 -12.3 9.9 -92.8 -3.654
12:46 1022 30.18 851 25.13 -6.1 21 62 -12.3 9.8 -92.8 -3.654
12:47 1022 30.18 851 25.13 -6.2 20.9 62 -12.4 9.7 -92.8 -3.654
12:48 1022 30.18 851 25.13 -6.2 20.8 63 -12.1 10.3 -92.7 -3.65
12:49 1022 30.18 851 25.13 -6.2 20.9 61 -12.5 9.5 -92.7 -3.65
12:50 1022 30.18 851 25.13 -6.2 20.8 61 -12.5 9.5 -92.7 -3.65
12:51 1022 30.18 851 25.13 -6.3 20.7 64 -11.9 10.5 -92.7 -3.65
12:52 1022 30.18 851 25.13 -6.2 20.9 62 -12.3 9.8 -92.7 -3.65
12:53 1022 30.18 851 25.13 -6.1 21 62 -12.2 10 -92.7 -3.65
12:54 1022 30.18 851 25.13 -6.1 21 61 -12.5 9.6 -92.7 -3.65
12:55 1022 30.18 851 25.13 -6.1 21 63 -12 10.4 -92.7 -3.65
12:56 1022 30.18 851 25.13 -6 21.2 61 -12.5 9.6 -92.7 -3.65
12:57 1022 30.18 851 25.13 -6.1 21 63 -12.1 10.2 -92.7 -3.65
12:58 1022 30.18 851 25.13 -6.2 20.8 63 -12.2 10.1 -92.7 -3.65
12:59 1022 30.18 851 25.13 -6.2 20.8 63 -12.3 9.9 -92.7 -3.65
13:00 1022 30.18 851 25.13 -6.2 20.8 62 -12.4 9.7 -92.7 -3.65
13:01 1022 30.18 851 25.13 -6.2 20.8 63 -12.2 10.1 -92.7 -3.65
13:02 1022 30.18 851 25.13 -6.2 20.9 62 -12.4 9.7 -92.7 -3.65
13:03 1022 30.18 851 25.13 -6.2 20.9 62 -12.3 9.8 -92.7 -3.65
13:04 1021 30.15 851 25.13 -6.1 21 63 -12.1 10.2 -92.7 -3.65
13:05 1021 30.15 851 25.13 -6 21.1 60 -12.6 9.2 -92.7 -3.65
13:06 1021 30.15 851 25.13 -6 21.3 62 -12.1 10.2 -92.7 -3.65
13:07 1021 30.15 851 25.13 -5.8 21.6 61 -12.1 10.2 -92.7 -3.65
13:08 1021 30.15 851 25.13 -5.6 21.9 62 -11.8 10.7 -92.6 -3.646
13:09 1021 30.15 851 25.13 -5.5 22 62 -11.7 11 -92.6 -3.646
13:10 1021 30.15 851 25.13 -5.3 22.5 60 -12 10.4 -92.6 -3.646
13:11 1021 30.15 851 25.13 -5.2 22.7 61 -11.7 11 -92.6 -3.646
13:12 1021 30.15 851 25.13 -5.1 22.8 58 -12.2 10 -92.6 -3.646
13:13 1021 30.15 851 25.13 -5.1 22.7 59 -11.9 10.6 -92.6 -3.646
13:14 1021 30.15 851 25.13 -5.1 22.8 60 -11.8 10.7 -92.6 -3.646
13:15 1021 30.15 850 25.1 -5.2 22.6 61 -11.6 11 -92.6 -3.646
13:16 1021 30.15 851 25.13 -5.3 22.4 60 -11.8 10.7 -92.6 -3.646
13:17 1021 30.15 850 25.1 -5.3 22.4 60 -11.9 10.6 -92.6 -3.646
13:18 1021 30.15 850 25.1 -5.2 22.6 59 -12 10.5 -92.6 -3.646
13:19 1021 30.15 850 25.1 -5 22.9 58 -12 10.4 -92.6 -3.646
13:20 1021 30.15 850 25.1 -5 23.1 60 -11.7 11 -92.6 -3.646
13:21 1021 30.15 850 25.1 -4.8 23.3 62 -11.1 11.9 -92.5 -3.642
13:22 1021 30.15 850 25.1 -4.6 23.7 58 -11.8 10.8 -92.5 -3.642
13:23 1021 30.15 850 25.1 -4.6 23.7 58 -11.7 11 -92.5 -3.642
13:24 1021 30.15 850 25.1 -4.7 23.6 59 -11.4 11.4 -92.5 -3.642
13:25 1021 30.15 850 25.1 -4.9 23.2 63 -10.9 12.3 -92.5 -3.642
13:26 1021 30.15 850 25.1 -5 23 63 -11 12.2 -92.5 -3.642
13:27 1021 30.15 850 25.1 -5 23.1 62 -11.2 11.9 -92.5 -3.642
13:28 1021 30.15 850 25.1 -4.9 23.1 64 -10.8 12.6 -92.5 -3.642
13:29 1021 30.15 850 25.1 -4.9 23.1 63 -11 12.2 -92.5 -3.642
13:30 1021 30.15 850 25.1 -5 23 63 -11.1 12.1 -92.5 -3.642
13:31 1021 30.15 850 25.1 -5 23 63 -11 12.2 -92.5 -3.642
13:32 1021 30.15 850 25.1 -5 23 63 -10.9 12.4 -92.5 -3.642
13:33 1021 30.15 850 25.1 -5 22.9 65 -10.7 12.7 -92.5 -3.642
13:34 1021 30.15 850 25.1 -5.1 22.8 63 -11 12.2 -92.5 -3.642
13:35 1021 30.15 850 25.1 -5.1 22.9 63 -11.2 11.9 -92.5 -3.642
13:36 1021 30.15 850 25.1 -5.1 22.8 62 -11.3 11.7 -92.5 -3.642
13:37 1021 30.15 850 25.1 -5.1 22.9 64 -10.9 12.4 -92.5 -3.642
13:38 1021 30.15 850 25.1 -5 22.9 63 -11.1 12 -92.5 -3.642
13:39 1021 30.15 850 25.1 -5.1 22.8 63 -11.1 12 -92.5 -3.642
13:40 1021 30.15 850 25.1 -5.1 22.7 63 -11.1 12.1 -92.4 -3.638
13:41 1021 30.15 850 25.1 -5.2 22.7 64 -10.9 12.4 -92.4 -3.638
13:42 1021 30.15 850 25.1 -5.1 22.8 64 -10.9 12.4 -92.4 -3.638
13:43 1021 30.15 850 25.1 -5.1 22.8 65 -10.8 12.6 -92.4 -3.638
13:44 1021 30.15 850 25.1 -5 22.9 64 -10.9 12.3 -92.4 -3.638
13:45 1021 30.15 850 25.1 -5.1 22.9 64 -10.9 12.3 -92.4 -3.638
13:46 1021 30.15 850 25.1 -5 22.9 64 -10.9 12.4 -92.4 -3.638
13:47 1021 30.15 850 25.1 -5 22.9 64 -10.8 12.5 -92.4 -3.638
13:48 1021 30.15 850 25.1 -4.9 23.1 63 -11 12.2 -92.4 -3.638
13:49 1021 30.15 850 25.1 -4.7 23.6 63 -10.6 12.9 -92.4 -3.638
13:50 1021 30.15 850 25.1 -4.5 23.9 63 -10.6 12.9 -92.3 -3.634
13:51 1021 30.15 850 25.1 -4.4 24 61 -10.8 12.5 -92.4 -3.638
13:52 1021 30.15 850 25.1 -4.4 24.1 61 -10.8 12.6 -92.3 -3.634
13:53 1021 30.15 850 25.1 -4.3 24.3 61 -10.8 12.6 -92.3 -3.634
13:54 1021 30.15 850 25.1 -4.3 24.2 60 -10.9 12.4 -92.3 -3.634
13:55 1021 30.15 850 25.1 -4.4 24 60 -11 12.1 -92.4 -3.638
13:56 1021 30.15 850 25.1 -4.5 23.9 60 -11.1 12 -92.3 -3.634
13:57 1021 30.15 850 25.1 -4.5 23.9 60 -11 12.1 -92.3 -3.634
13:58 1021 30.15 850 25.1 -4.3 24.3 59 -11.1 12.1 -92.3 -3.634
13:59 1021 30.15 850 25.1 -4 24.7 62 -10.3 13.4 -92.3 -3.634
14:00 1021 30.15 850 25.1 -4 24.7 63 -10.1 13.7 -92.3 -3.634
14:01 1021 30.15 850 25.1 -4.3 24.3 65 -10 14 -92.2 -3.63
14:02 1021 30.15 850 25.1 -4.6 23.7 63 -10.6 12.8 -92.2 -3.63
14:03 1021 30.15 850 25.1 -4.8 23.3 65 -10.4 13.3 -92.2 -3.63
14:04 1021 30.15 850 25.1 -5.1 22.9 68 -10.1 13.8 -92.2 -3.63
14:05 1021 30.15 850 25.1 -5.4 22.3 69 -10.3 13.5 -92.2 -3.63
14:06 1021 30.15 850 25.1 -5.6 21.9 70 -10.2 13.7 -92.2 -3.63
14:07 1021 30.15 850 25.1 -5.8 21.6 71 -10.2 13.7 -92.2 -3.63
14:08 1021 30.15 850 25.1 -5.9 21.3 71 -10.3 13.4 -92.2 -3.63
14:09 1021 30.15 850 25.1 -6.1 21 73 -10.3 13.5 -92.2 -3.63
14:10 1021 30.15 850 25.1 -6.2 20.9 73 -10.3 13.4 -92.2 -3.63
14:11 1021 30.15 850 25.1 -6.3 20.7 74 -10.2 13.6 -92.2 -3.63
14:12 1021 30.15 850 25.1 -6.3 20.6 73 -10.4 13.2 -92.2 -3.63
14:13 1021 30.15 850 25.1 -6.4 20.5 74 -10.4 13.4 -92.2 -3.63
14:14 1021 30.15 850 25.1 -6.4 20.6 74 -10.3 13.5 -92.2 -3.63
14:15 1020 30.12 850 25.1 -6.3 20.7 74 -10.2 13.6 -92.2 -3.63
14:16 1021 30.15 850 25.1 -6.2 20.8 75 -10 14 -92.2 -3.63
14:17 1020 30.12 850 25.1 -6.1 21 74 -10 14 -92.1 -3.626
14:18 1020 30.12 850 25.1 -6 21.3 72 -10.3 13.5 -92.1 -3.626
14:19 1020 30.12 850 25.1 -6 21.3 73 -10 14 -92.1 -3.626
14:20 1020 30.12 850 25.1 -6 21.3 72 -10.3 13.5 -92.1 -3.626
14:21 1020 30.12 850 25.1 -6 21.2 73 -10.1 13.8 -92.2 -3.63
14:22 1020 30.12 850 25.1 -6.2 20.9 72 -10.4 13.3 -92.2 -3.63
14:23 1020 30.12 850 25.1 -6.3 20.7 72 -10.5 13.1 -92.2 -3.63
14:24 1020 30.12 850 25.1 -6.3 20.6 73 -10.4 13.3 -92.2 -3.63
14:25 1020 30.12 850 25.1 -6.3 20.6 73 -10.4 13.3 -92.2 -3.63
14:26 1020 30.12 850 25.1 -6.3 20.6 73 -10.3 13.4 -92.2 -3.63
14:27 1020 30.12 850 25.1 -6.3 20.6 72 -10.5 13.1 -92.2 -3.63
14:28 1020 30.12 850 25.1 -6.4 20.5 73 -10.4 13.2 -92.2 -3.63
14:29 1020 30.12 850 25.1 -6.3 20.6 73 -10.3 13.4 -92.2 -3.63
14:30 1020 30.12 850 25.1 -6.3 20.7 73 -10.4 13.2 -92.2 -3.63
14:31 1020 30.12 850 25.1 -6.3 20.6 73 -10.3 13.4 -92.2 -3.63
14:32 1020 30.12 850 25.1 -6.3 20.7 73 -10.4 13.3 -92.2 -3.63
14:33 1020 30.12 850 25.1 -6.3 20.7 73 -10.4 13.3 -92.2 -3.63
14:34 1020 30.12 850 25.1 -6.3 20.7 74 -10.2 13.6 -92.2 -3.63
14:35 1020 30.12 850 25.1 -6.1 20.9 71 -10.5 13.1 -92.2 -3.63
14:36 1020 30.12 850 25.1 -6.1 21 73 -10.2 13.7 -92.2 -3.63
14:37 1020 30.12 850 25.1 -6 21.1 71 -10.5 13.1 -92.2 -3.63
14:38 1020 30.12 850 25.1 -6 21.2 72 -10.4 13.4 -92.2 -3.63
14:39 1020 30.12 850 25.1 -5.9 21.3 71 -10.3 13.4 -92.2 -3.63
14:40 1020 30.12 849 25.07 -5.8 21.5 70 -10.4 13.3 -92.2 -3.63
14:41 1020 30.12 849 25.07 -5.9 21.4 71 -10.4 13.3 -92.2 -3.63
14:42 1020 30.12 849 25.07 -5.9 21.4 70 -10.6 13 -92.2 -3.63
14:43 1020 30.12 849 25.07 -6 21.2 70 -10.6 12.9 -92.2 -3.63
14:44 1020 30.12 850 25.1 -6.1 21 71 -10.6 12.9 -92.2 -3.63
14:45 1020 30.12 850 25.1 -6.2 20.9 72 -10.5 13.1 -92.2 -3.63
14:46 1020 30.12 850 25.1 -6.2 20.8 72 -10.4 13.2 -92.2 -3.63
14:47 1020 30.12 850 25.1 -6.3 20.7 71 -10.8 12.6 -92.2 -3.63
14:48 1020 30.12 849 25.07 -6.4 20.5 72 -10.6 12.9 -92.2 -3.63
14:49 1020 30.12 849 25.07 -6.4 20.5 72 -10.7 12.8 -92.2 -3.63
14:50 1020 30.12 850 25.1 -6.4 20.5 72 -10.5 13 -92.2 -3.63
14:51 1020 30.12 850 25.1 -6.4 20.5 71 -10.8 12.6 -92.2 -3.63
14:52 1020 30.12 850 25.1 -6.3 20.6 71 -10.7 12.7 -92.2 -3.63
14:53 1020 30.12 850 25.1 -6.3 20.6 72 -10.5 13 -92.2 -3.63
14:54 1020 30.12 850 25.1 -6.3 20.6 72 -10.6 12.9 -92.2 -3.63
14:55 1020 30.12 849 25.07 -6.4 20.6 72 -10.6 12.9 -92.2 -3.63
14:56 1020 30.12 849 25.07 -6.4 20.5 72 -10.6 13 -92.2 -3.63
14:57 1020 30.12 849 25.07 -6.4 20.5 73 -10.4 13.2 -92.2 -3.63
14:58 1020 30.12 849 25.07 -6.4 20.5 73 -10.5 13 -92.2 -3.63
14:59 1020 30.12 849 25.07 -6.4 20.4 73 -10.6 12.9 -92.2 -3.63
15:00 1020 30.12 849 25.07 -6.4 20.5 73 -10.5 13 -92.2 -3.63
15:01 1020 30.12 849 25.07 -6.4 20.5 74 -10.3 13.4 -92.2 -3.63
15:02 1020 30.12 849 25.07 -6.4 20.4 74 -10.4 13.3 -92.2 -3.63
15:03 1020 30.12 849 25.07 -6.5 20.3 74 -10.4 13.2 -92.2 -3.63
15:04 1020 30.12 849 25.07 -6.5 20.3 74 -10.4 13.3 -92.2 -3.63
15:05 1020 30.12 849 25.07 -6.5 20.3 75 -10.3 13.4 -92.2 -3.63
15:06 1020 30.12 849 25.07 -6.5 20.3 74 -10.3 13.4 -92.2 -3.63
15:07 1020 30.12 849 25.07 -6.5 20.3 74 -10.4 13.3 -92.2 -3.63
15:08 1020 30.12 849 25.07 -6.5 20.3 74 -10.4 13.3 -92.2 -3.63
15:09 1020 30.12 849 25.07 -6.5 20.3 74 -10.4 13.3 -92.2 -3.63
15:10 1020 30.12 849 25.07 -6.5 20.2 74 -10.4 13.2 -92.2 -3.63
15:11 1020 30.12 849 25.07 -6.6 20.2 73 -10.5 13 -92.2 -3.63
15:12 1020 30.12 849 25.07 -6.6 20.1 74 -10.4 13.2 -92.2 -3.63
15:13 1020 30.12 849 25.07 -6.6 20.2 74 -10.4 13.3 -92.2 -3.63
15:14 1020 30.12 849 25.07 -6.5 20.2 75 -10.4 13.4 -92.2 -3.63
15:15 1020 30.12 849 25.07 -6.5 20.2 74 -10.4 13.3 -92.2 -3.63
15:16 1020 30.12 849 25.07 -6.6 20.2 74 -10.4 13.3 -92.2 -3.63
15:17 1020 30.12 849 25.07 -6.5 20.2 74 -10.4 13.3 -92.2 -3.63
15:18 1020 30.12 849 25.07 -6.5 20.2 74 -10.4 13.3 -92.2 -3.63
15:19 1020 30.12 849 25.07 -6.6 20.2 75 -10.3 13.5 -92.2 -3.63
15:20 1020 30.12 849 25.07 -6.6 20.1 75 -10.3 13.4 -92.2 -3.63
15:21 1020 30.12 849 25.07 -6.6 20.2 76 -10.2 13.6 -92.2 -3.63
15:22 1020 30.12 849 25.07 -6.6 20.2 75 -10.3 13.5 -92.2 -3.63
15:23 1020 30.12 849 25.07 -6.5 20.3 75 -10.2 13.6 -92.2 -3.63
15:24 1020 30.12 849 25.07 -6.6 20.2 74 -10.4 13.3 -92.2 -3.63
15:25 1020 30.12 849 25.07 -6.6 20.2 75 -10.3 13.5 -92.2 -3.63
15:26 1020 30.12 849 25.07 -6.5 20.2 75 -10.3 13.5 -92.2 -3.63
15:27 1020 30.12 849 25.07 -6.5 20.3 75 -10.3 13.5 -92.2 -3.63
15:28 1020 30.12 849 25.07 -6.5 20.2 75 -10.3 13.4 -92.2 -3.63
15:29 1020 30.12 849 25.07 -6.6 20.2 75 -10.2 13.6 -92.2 -3.63
15:30 1020 30.12 849 25.07 -6.5 20.2 76 -10.1 13.8 -92.2 -3.63
15:31 1020 30.12 849 25.07 -6.5 20.3 76 -10.1 13.8 -92.2 -3.63
15:32 1020 30.12 849 25.07 -6.5 20.3 75 -10.2 13.6 -92.2 -3.63
15:33 1020 30.12 849 25.07 -6.5 20.3 75 -10.1 13.7 -92.2 -3.63
15:34 1020 30.12 849 25.07 -6.5 20.3 76 -10.1 13.9 -92.2 -3.63
15:35 1020 30.12 849 25.07 -6.5 20.4 76 -10 14 -92.2 -3.63
15:36 1020 30.12 849 25.07 -6.4 20.4 75 -10.2 13.6 -92.3 -3.634
15:37 1020 30.12 849 25.07 -6.4 20.5 75 -10.2 13.7 -92.3 -3.634
15:38 1020 30.12 849 25.07 -6.4 20.5 74 -10.3 13.5 -92.3 -3.634
15:39 1020 30.12 849 25.07 -6.4 20.5 74 -10.3 13.5 -92.3 -3.634
15:40 1020 30.12 849 25.07 -6.4 20.5 75 -10.2 13.6 -92.3 -3.634
15:41 1020 30.12 849 25.07 -6.4 20.5 75 -10.2 13.6 -92.3 -3.634
15:42 1020 30.12 849 25.07 -6.3 20.6 76 -10 14.1 -92.3 -3.634
15:43 1020 30.12 849 25.07 -6.3 20.6 75 -10.1 13.9 -92.3 -3.634
15:44 1020 30.12 849 25.07 -6.3 20.7 75 -10 13.9 -92.3 -3.634
15:45 1020 30.12 849 25.07 -6.3 20.7 74 -10.2 13.6 -92.3 -3.634
15:46 1020 30.12 849 25.07 -6.3 20.7 74 -10.3 13.5 -92.3 -3.634
15:47 1020 30.12 849 25.07 -6.3 20.6 75 -10.1 13.9 -92.3 -3.634
15:48 1020 30.12 849 25.07 -6.3 20.7 74 -10.2 13.6 -92.3 -3.634
15:49 1020 30.12 849 25.07 -6.3 20.7 74 -10.2 13.6 -92.3 -3.634
15:50 1020 30.12 849 25.07 -6.3 20.7 74 -10.2 13.6 -92.3 -3.634
15:51 1020 30.12 849 25.07 -6.3 20.7 74 -10.2 13.6 -92.3 -3.634
15:52 1020 30.12 849 25.07 -6.3 20.6 75 -10.1 13.8 -92.3 -3.634
15:53 1020 30.12 849 25.07 -6.3 20.7 74 -10.2 13.6 -92.3 -3.634
15:54 1020 30.12 849 25.07 -6.2 20.8 75 -10 13.9 -92.3 -3.634
15:55 1020 30.12 849 25.07 -6.2 20.8 74 -10.2 13.7 -92.3 -3.634
15:56 1020 30.12 849 25.07 -6.3 20.7 74 -10.2 13.6 -92.3 -3.634
15:57 1020 30.12 849 25.07 -6.3 20.7 74 -10.2 13.6 -92.3 -3.634
15:58 1020 30.12 849 25.07 -6.2 20.8 75 -10 14 -92.3 -3.634
15:59 1020 30.12 849 25.07 -6.2 20.8 74 -10.2 13.6 -92.3 -3.634
16:00 1020 30.12 849 25.07 -6.2 20.8 74 -10.2 13.7 -92.3 -3.634
16:01 1020 30.12 849 25.07 -6.2 20.8 74 -10.2 13.6 -92.3 -3.634
16:02 1020 30.12 849 25.07 -6.2 20.9 74 -10.2 13.7 -92.3 -3.634
16:03 1020 30.12 849 25.07 -6.1 21 73 -10.2 13.7 -92.3 -3.634
16:04 1020 30.12 849 25.07 -6.1 21 73 -10.3 13.5 -92.3 -3.634
16:05 1020 30.12 849 25.07 -6.1 20.9 73 -10.3 13.4 -92.3 -3.634
16:06 1020 30.12 849 25.07 -6.1 20.9 73 -10.2 13.7 -92.3 -3.634
16:07 1020 30.12 849 25.07 -6.2 20.9 74 -10.2 13.7 -92.3 -3.634
16:08 1020 30.12 849 25.07 -6.2 20.8 73 -10.2 13.6 -92.3 -3.634
16:09 1020 30.12 849 25.07 -6.2 20.9 73 -10.3 13.5 -92.3 -3.634
16:10 1020 30.12 849 25.07 -6.1 20.9 74 -10.1 13.8 -92.3 -3.634
16:11 1020 30.12 849 25.07 -6.1 21 73 -10.1 13.7 -92.3 -3.634
16:12 1020 30.12 849 25.07 -6.1 21.1 74 -10 14 -92.3 -3.634
16:13 1020 30.12 849 25.07 -6.1 21 73 -10.1 13.7 -92.3 -3.634
16:14 1020 30.12 849 25.07 -6.1 21 74 -10.1 13.8 -92.3 -3.634
16:15 1020 30.12 849 25.07 -6.1 21 73 -10.2 13.6 -92.3 -3.634
16:16 1020 30.12 849 25.07 -6.1 21 73 -10.2 13.7 -92.3 -3.634
16:17 1020 30.12 849 25.07 -6.1 21.1 73 -10.2 13.6 -92.3 -3.634
16:18 1020 30.12 849 25.07 -6.1 21.1 72 -10.3 13.5 -92.3 -3.634
16:19 1020 30.12 849 25.07 -6.1 21.1 72 -10.3 13.4 -92.3 -3.634
16:20 1020 30.12 849 25.07 -6.1 21.1 72 -10.3 13.5 -92.3 -3.634
16:21 1020 30.12 849 25.07 -6 21.1 72 -10.3 13.5 -92.3 -3.634
16:22 1020 30.12 849 25.07 -6 21.2 72 -10.2 13.7 -92.3 -3.634
16:23 1020 30.12 849 25.07 -6 21.3 72 -10.1 13.7 -92.3 -3.634
16:24 1020 30.12 849 25.07 -5.9 21.4 72 -10.2 13.7 -92.3 -3.634
16:25 1020 30.12 849 25.07 -5.9 21.4 71 -10.2 13.6 -92.3 -3.634
16:26 1020 30.12 849 25.07 -5.9 21.4 72 -10.1 13.8 -92.3 -3.634
16:27 1020 30.12 849 25.07 -5.9 21.4 73 -10 14 -92.3 -3.634
16:28 1020 30.12 849 25.07 -5.9 21.4 73 -10.1 13.9 -92.3 -3.634
16:29 1020 30.12 849 25.07 -5.9 21.4 72 -10.2 13.6 -92.4 -3.638
16:30 1020 30.12 849 25.07 -5.9 21.3 72 -10.2 13.6 -92.4 -3.638
16:31 1020 30.12 849 25.07 -5.9 21.3 72 -10.3 13.5 -92.4 -3.638
16:32 1020 30.12 849 25.07 -5.9 21.3 72 -10.2 13.6 -92.3 -3.634
16:33 1020 30.12 849 25.07 -5.9 21.4 73 -10 13.9 -92.3 -3.634
16:34 1020 30.12 849 25.07 -5.9 21.3 73 -10.1 13.9 -92.3 -3.634
16:35 1020 30.12 849 25.07 -5.9 21.4 73 -10 13.9 -92.3 -3.634
16:36 1020 30.12 849 25.07 -5.9 21.3 73 -10.1 13.9 -92.3 -3.634
16:37 1020 30.12 849 25.07 -5.9 21.3 72 -10.1 13.8 -92.4 -3.638
16:38 1020 30.12 849 25.07 -6 21.2 72 -10.2 13.7 -92.4 -3.638
16:39 1020 30.12 849 25.07 -6 21.1 73 -10.1 13.8 -92.4 -3.638
16:40 1020 30.12 849 25.07 -6.1 21.1 74 -10 13.9 -92.4 -3.638
16:41 1020 30.12 849 25.07 -6.1 21.1 73 -10.1 13.8 -92.4 -3.638
16:42 1020 30.12 849 25.07 -6.1 21 73 -10.2 13.6 -92.4 -3.638
16:43 1020 30.12 849 25.07 -6.2 20.9 73 -10.3 13.5 -92.4 -3.638
16:44 1020 30.12 849 25.07 -6.2 20.9 73 -10.2 13.7 -92.4 -3.638
16:45 1020 30.12 849 25.07 -6.2 20.8 74 -10.2 13.6 -92.4 -3.638
16:46 1020 30.12 849 25.07 -6.3 20.7 73 -10.3 13.5 -92.4 -3.638
16:47 1020 30.12 849 25.07 -6.3 20.7 74 -10.2 13.6 -92.4 -3.638
16:48 1020 30.12 849 25.07 -6.3 20.7 74 -10.1 13.8 -92.3 -3.634
16:49 1020 30.12 849 25.07 -6.3 20.7 73 -10.3 13.5 -92.4 -3.638
16:50 1020 30.12 849 25.07 -6.3 20.7 74 -10.2 13.7 -92.4 -3.638
16:51 1020 30.12 849 25.07 -6.3 20.7 74 -10.1 13.8 -92.3 -3.634
16:52 1020 30.12 849 25.07 -6.3 20.7 74 -10.1 13.8 -92.3 -3.634
16:53 1020 30.12 849 25.07 -6.3 20.7 75 -10.1 13.9 -92.3 -3.634
16:54 1020 30.12 849 25.07 -6.3 20.7 74 -10.2 13.7 -92.3 -3.634
16:55 1020 30.12 849 25.07 -6.2 20.8 74 -10.1 13.8 -92.3 -3.634
16:56 1020 30.12 849 25.07 -6.2 20.8 74 -10.2 13.6 -92.3 -3.634
16:57 1020 30.12 849 25.07 -6.2 20.8 73 -10.3 13.5 -92.3 -3.634
16:58 1020 30.12 849 25.07 -6.3 20.7 73 -10.4 13.3 -92.3 -3.634
16:59 1020 30.12 849 25.07 -6.3 20.7 73 -10.3 13.4 -92.3 -3.634
17:00 1020 30.12 849 25.07 -6.2 20.8 73 -10.3 13.4 -92.3 -3.634
17:01 1020 30.12 849 25.07 -6.3 20.7 74 -10.3 13.5 -92.3 -3.634
17:02 1020 30.12 849 25.07 -6.3 20.7 74 -10.2 13.6 -92.3 -3.634
17:03 1020 30.12 849 25.07 -6.3 20.7 74 -10.3 13.5 -92.3 -3.634
17:04 1020 30.12 849 25.07 -6.3 20.7 74 -10.1 13.8 -92.3 -3.634
17:05 1020 30.12 849 25.07 -6.4 20.5 74 -10.3 13.4 -92.4 -3.638
17:06 1019 30.09 849 25.07 -6.4 20.5 70 -11 12.3 -92.4 -3.638
17:07 1019 30.09 849 25.07 -6.4 20.4 69 -11.1 11.9 -92.4 -3.638
17:08 1019 30.09 849 25.07 -6.5 20.3 70 -11.1 12 -92.4 -3.638
17:09 1019 30.09 849 25.07 -6.5 20.3 70 -11 12.1 -92.4 -3.638
17:10 1019 30.09 849 25.07 -6.5 20.3 70 -11.1 12 -92.4 -3.638
17:11 1019 30.09 849 25.07 -6.5 20.2 70 -11.2 11.9 -92.4 -3.638
17:12 1019 30.09 849 25.07 -6.6 20.2 71 -11 12.1 -92.4 -3.638
17:13 1019 30.09 849 25.07 -6.6 20.1 70 -11.2 11.9 -92.4 -3.638
17:14 1019 30.09 849 25.07 -6.7 20 70 -11.3 11.7 -92.4 -3.638
17:15 1019 30.09 849 25.07 -6.7 19.9 70 -11.3 11.7 -92.4 -3.638
17:16 1019 30.09 849 25.07 -6.8 19.8 71 -11.2 11.8 -92.4 -3.638
17:17 1019 30.09 849 25.07 -6.8 19.8 70 -11.4 11.6 -92.4 -3.638
17:18 1019 30.09 849 25.07 -6.8 19.7 71 -11.3 11.7 -92.4 -3.638
17:19 1019 30.09 849 25.07 -6.8 19.7 71 -11.3 11.7 -92.4 -3.638
17:20 1019 30.09 849 25.07 -6.9 19.7 71 -11.2 11.8 -92.4 -3.638
17:21 1019 30.09 848 25.04 -6.9 19.6 71 -11.4 11.5 -92.4 -3.638
17:22 1019 30.09 848 25.04 -6.9 19.5 71 -11.4 11.5 -92.4 -3.638
17:23 1019 30.09 848 25.04 -6.9 19.5 71 -11.4 11.6 -92.4 -3.638
17:24 1019 30.09 848 25.04 -7 19.4 71 -11.4 11.5 -92.4 -3.638
17:25 1019 30.09 849 25.07 -7 19.4 71 -11.4 11.5 -92.4 -3.638
17:26 1019 30.09 848 25.04 -7.1 19.3 72 -11.3 11.6 -92.4 -3.638
17:27 1019 30.09 848 25.04 -7.1 19.2 72 -11.4 11.5 -92.4 -3.638
17:28 1019 30.09 849 25.07 -7.2 19.1 72 -11.4 11.4 -92.4 -3.638
17:29 1019 30.09 848 25.04 -7.2 19.1 72 -11.4 11.5 -92.4 -3.638
17:30 1019 30.09 848 25.04 -7.3 19 73 -11.4 11.5 -92.4 -3.638
17:31 1019 30.09 848 25.04 -7.3 18.9 73 -11.3 11.6 -92.4 -3.638
17:32 1019 30.09 848 25.04 -7.3 18.9 72 -11.5 11.3 -92.5 -3.642
17:33 1019 30.09 848 25.04 -7.3 18.9 72 -11.5 11.3 -92.5 -3.642
17:34 1019 30.09 848 25.04 -7.3 18.8 72 -11.6 11.2 -92.5 -3.642
17:35 1019 30.09 848 25.04 -7.4 18.7 72 -11.6 11.1 -92.5 -3.642
17:36 1019 30.09 848 25.04 -7.4 18.7 71 -11.7 10.9 -92.5 -3.642
17:37 1019 30.09 848 25.04 -7.4 18.6 72 -11.6 11.1 -92.5 -3.642
17:38 1019 30.09 848 25.04 -7.4 18.6 72 -11.6 11.1 -92.5 -3.642
17:39 1019 30.09 848 25.04 -7.5 18.5 72 -11.7 10.9 -92.5 -3.642
17:40 1019 30.09 848 25.04 -7.5 18.5 72 -11.7 10.9 -92.5 -3.642
17:41 1019 30.09 848 25.04 -7.6 18.4 72 -11.8 10.8 -92.5 -3.642
17:42 1019 30.09 848 25.04 -7.6 18.2 72 -11.8 10.7 -92.5 -3.642
17:43 1019 30.09 848 25.04 -7.7 18.2 72 -11.9 10.7 -92.5 -3.642
17:44 1019 30.09 848 25.04 -7.7 18.2 72 -11.9 10.6 -92.5 -3.642
17:45 1019 30.09 848 25.04 -7.7 18.1 72 -11.9 10.5 -92.5 -3.642
17:46 1019 30.09 848 25.04 -7.8 18 73 -11.9 10.6 -92.5 -3.642
17:47 1019 30.09 848 25.04 -7.9 17.9 73 -11.9 10.7 -92.5 -3.642
17:48 1019 30.09 848 25.04 -7.9 17.7 73 -11.9 10.6 -92.5 -3.642
17:49 1019 30.09 848 25.04 -8 17.7 73 -12 10.4 -92.5 -3.642
17:50 1019 30.09 848 25.04 -8 17.7 73 -12 10.5 -92.5 -3.642
17:51 1019 30.09 848 25.04 -8 17.6 73 -12 10.4 -92.5 -3.642
17:52 1019 30.09 848 25.04 -8 17.5 73 -12 10.4 -92.5 -3.642
17:53 1019 30.09 848 25.04 -8.1 17.5 73 -12 10.3 -92.5 -3.642
17:54 1019 30.09 848 25.04 -8.1 17.4 73 -12.1 10.3 -92.5 -3.642
17:55 1019 30.09 848 25.04 -8.1 17.5 73 -12 10.3 -92.5 -3.642
17:56 1019 30.09 848 25.04 -8.1 17.4 73 -12.1 10.3 -92.5 -3.642
17:57 1019 30.09 848 25.04 -8.2 17.3 74 -12 10.3 -92.5 -3.642
17:58 1019 30.09 848 25.04 -8.2 17.2 74 -12 10.3 -92.5 -3.642
17:59 1019 30.09 848 25.04 -8.3 17.1 74 -12.1 10.2 -92.5 -3.642
18:00 1019 30.09 848 25.04 -8.3 17.1 74 -12.1 10.3 -92.5 -3.642
18:01 1019 30.09 848 25.04 -8.3 17.1 75 -12 10.3 -92.5 -3.642
18:02 1019 30.09 848 25.04 -8.3 17.1 74 -12.1 10.2 -92.6 -3.646
18:03 1019 30.09 848 25.04 -8.2 17.2 74 -12.1 10.3 -92.6 -3.646
18:04 1019 30.09 848 25.04 -8.2 17.2 74 -12.1 10.2 -92.6 -3.646
18:05 1019 30.09 848 25.04 -8.3 17.2 74 -12.1 10.2 -92.6 -3.646
18:06 1019 30.09 848 25.04 -8.2 17.2 74 -12.1 10.3 -92.6 -3.646
18:07 1019 30.09 848 25.04 -8.3 17 74 -12.2 10 -92.6 -3.646
18:08 1019 30.09 848 25.04 -8.3 17 74 -12.2 10 -92.6 -3.646
18:09 1019 30.09 848 25.04 -8.4 17 74 -12.3 9.9 -92.6 -3.646
18:10 1019 30.09 848 25.04 -8.4 16.9 74 -12.3 9.9 -92.6 -3.646
18:11 1019 30.09 848 25.04 -8.4 16.9 74 -12.3 9.9 -92.6 -3.646
18:12 1019 30.09 848 25.04 -8.5 16.8 73 -12.4 9.7 -92.6 -3.646
18:13 1019 30.09 848 25.04 -8.4 16.9 73 -12.3 9.8 -92.6 -3.646
18:14 1019 30.09 848 25.04 -8.3 17 73 -12.4 9.7 -92.6 -3.646
18:15 1019 30.09 848 25.04 -8.3 17 73 -12.4 9.8 -92.6 -3.646
18:16 1019 30.09 848 25.04 -8.4 17 73 -12.4 9.7 -92.6 -3.646
18:17 1019 30.09 848 25.04 -8.4 16.9 73 -12.4 9.7 -92.6 -3.646
18:18 1019 30.09 848 25.04 -8.5 16.8 73 -12.4 9.7 -92.6 -3.646
18:19 1019 30.09 848 25.04 -8.5 16.7 74 -12.4 9.7 -92.6 -3.646
18:20 1019 30.09 848 25.04 -8.6 16.6 74 -12.4 9.6 -92.6 -3.646
18:21 1019 30.09 848 25.04 -8.6 16.5 74 -12.5 9.5 -92.6 -3.646
18:22 1019 30.09 848 25.04 -8.5 16.6 73 -12.5 9.5 -92.6 -3.646
18:23 1019 30.09 848 25.04 -8.6 16.5 74 -12.5 9.5 -92.6 -3.646
18:24 1019 30.09 848 25.04 -8.6 16.5 74 -12.5 9.6 -92.6 -3.646
18:25 1019 30.09 848 25.04 -8.6 16.5 74 -12.5 9.6 -92.6 -3.646
18:26 1019 30.09 848 25.04 -8.6 16.6 74 -12.5 9.5 -92.6 -3.646
18:27 1019 30.09 848 25.04 -8.6 16.6 73 -12.5 9.4 -92.7 -3.65
18:28 1019 30.09 848 25.04 -8.6 16.5 73 -12.6 9.4 -92.7 -3.65
18:29 1019 30.09 848 25.04 -8.6 16.6 73 -12.6 9.3 -92.7 -3.65
18:30 1019 30.09 848 25.04 -8.5 16.6 73 -12.5 9.5 -92.7 -3.65
18:31 1019 30.09 848 25.04 -8.6 16.6 73 -12.6 9.4 -92.7 -3.65
18:32 1019 30.09 848 25.04 -8.6 16.5 74 -12.5 9.4 -92.7 -3.65
18:33 1019 30.09 848 25.04 -8.6 16.5 73 -12.6 9.3 -92.7 -3.65
18:34 1019 30.09 848 25.04 -8.6 16.5 73 -12.6 9.3 -92.7 -3.65
18:35 1019 30.09 848 25.04 -8.6 16.5 73 -12.6 9.3 -92.7 -3.65
18:36 1019 30.09 848 25.04 -8.6 16.5 73 -12.6 9.4 -92.7 -3.65
18:37 1019 30.09 848 25.04 -8.6 16.4 73 -12.6 9.3 -92.7 -3.65
18:38 1019 30.09 848 25.04 -8.7 16.3 73 -12.7 9.2 -92.7 -3.65
18:39 1019 30.09 848 25.04 -8.7 16.4 73 -12.7 9.2 -92.7 -3.65
18:40 1019 30.09 848 25.04 -8.7 16.3 73 -12.7 9.2 -92.7 -3.65
18:41 1019 30.09 848 25.04 -8.7 16.4 73 -12.7 9.1 -92.7 -3.65
18:42 1019 30.09 848 25.04 -8.7 16.3 73 -12.7 9.1 -92.7 -3.65
18:43 1019 30.09 848 25.04 -8.7 16.3 73 -12.7 9.1 -92.7 -3.65
18:44 1019 30.09 848 25.04 -8.8 16.2 73 -12.8 8.9 -92.7 -3.65
18:45 1019 30.09 848 25.04 -8.8 16.2 73 -12.8 9 -92.7 -3.65
18:46 1019 30.09 848 25.04 -8.8 16.2 73 -12.8 8.9 -92.7 -3.65
18:47 1019 30.09 848 25.04 -8.8 16.1 73 -12.8 8.9 -92.7 -3.65
18:48 1019 30.09 848 25.04 -8.9 16.1 73 -12.8 9 -92.7 -3.65
18:49 1019 30.09 848 25.04 -8.9 16 74 -12.8 8.9 -92.7 -3.65
18:50 1019 30.09 848 25.04 -8.9 15.9 74 -12.8 8.9 -92.7 -3.65
18:51 1019 30.09 848 25.04 -9 15.8 74 -12.8 8.9 -92.7 -3.65
18:52 1019 30.09 848 25.04 -9 15.9 74 -12.8 9 -92.7 -3.65
18:53 1019 30.09 848 25.04 -9 15.8 74 -12.8 9 -92.7 -3.65
18:54 1019 30.09 848 25.04 -9 15.7 74 -12.8 9 -92.7 -3.65
18:55 1019 30.09 848 25.04 -9 15.8 75 -12.7 9.1 -92.7 -3.65
18:56 1019 30.09 848 25.04 -9.1 15.7 75 -12.8 9 -92.7 -3.65
18:57 1019 30.09 848 25.04 -9 15.7 75 -12.7 9.1 -92.7 -3.65
18:58 1019 30.09 848 25.04 -9 15.7 74 -12.8 9 -92.7 -3.65
18:59 1019 30.09 848 25.04 -9 15.7 74 -12.8 8.9 -92.7 -3.65
19:00 1019 30.09 848 25.04 -9.1 15.6 74 -12.9 8.9 -92.7 -3.65
19:01 1019 30.09 848 25.04 -9.1 15.6 74 -12.9 8.9 -92.7 -3.65
19:02 1019 30.09 848 25.04 -9.1 15.6 74 -12.9 8.7 -92.7 -3.65
19:03 1019 30.09 848 25.04 -9.1 15.6 74 -12.9 8.8 -92.8 -3.654
19:04 1019 30.09 848 25.04 -9.2 15.5 74 -12.9 8.8 -92.8 -3.654
19:05 1019 30.09 848 25.04 -9.2 15.4 74 -13 8.7 -92.8 -3.654
19:06 1019 30.09 848 25.04 -9.2 15.4 75 -12.9 8.7 -92.8 -3.654
19:07 1019 30.09 848 25.04 -9.3 15.3 75 -13 8.7 -92.8 -3.654
19:08 1019 30.09 848 25.04 -9.3 15.3 75 -13 8.7 -92.8 -3.654
19:09 1019 30.09 848 25.04 -9.3 15.2 75 -13 8.6 -92.8 -3.654
19:10 1019 30.09 848 25.04 -9.4 15.1 75 -13 8.5 -92.8 -3.654
19:11 1019 30.09 848 25.04 -9.4 15 75 -13.1 8.3 -92.8 -3.654
19:12 1019 30.09 848 25.04 -9.5 15 75 -13.2 8.3 -92.8 -3.654
19:13 1019 30.09 848 25.04 -9.5 14.8 75 -13.2 8.2 -92.8 -3.654
19:14 1019 30.09 848 25.04 -9.6 14.7 75 -13.3 8.1 -92.8 -3.654
19:15 1019 30.09 848 25.04 -9.6 14.8 75 -13.2 8.2 -92.8 -3.654
19:16 1019 30.09 848 25.04 -9.6 14.7 75 -13.3 8 -92.8 -3.654
19:17 1019 30.09 848 25.04 -9.7 14.5 75 -13.4 7.9 -92.8 -3.654
19:18 1019 30.09 848 25.04 -9.7 14.5 75 -13.4 7.9 -92.8 -3.654
19:19 1019 30.09 848 25.04 -9.7 14.5 75 -13.4 7.9 -92.8 -3.654
19:20 1019 30.09 848 25.04 -9.7 14.6 75 -13.4 7.9 -92.8 -3.654
19:21 1019 30.09 848 25.04 -9.7 14.6 75 -13.3 8 -92.8 -3.654
19:22 1019 30.09 848 25.04 -9.7 14.6 74 -13.4 7.9 -92.8 -3.654
19:23 1019 30.09 848 25.04 -9.7 14.6 74 -13.4 7.9 -92.8 -3.654
19:24 1019 30.09 848 25.04 -9.6 14.7 74 -13.4 7.9 -92.8 -3.654
19:25 1019 30.09 848 25.04 -9.7 14.6 74 -13.4 7.9 -92.8 -3.654
19:26 1019 30.09 848 25.04 -9.7 14.5 75 -13.4 7.8 -92.8 -3.654
19:27 1019 30.09 848 25.04 -9.7 14.5 75 -13.4 7.9 -92.9 -3.657
19:28 1019 30.09 848 25.04 -9.8 14.4 75 -13.5 7.7 -92.9 -3.657
19:29 1019 30.09 848 25.04 -9.8 14.4 75 -13.5 7.7 -92.9 -3.657
19:30 1019 30.09 848 25.04 -9.8 14.3 75 -13.5 7.8 -92.9 -3.657
19:31 1019 30.09 848 25.04 -9.9 14.3 75 -13.5 7.6 -92.9 -3.657
19:32 1019 30.09 848 25.04 -9.9 14.2 75 -13.5 7.7 -92.9 -3.657
19:33 1019 30.09 848 25.04 -9.9 14.2 75 -13.5 7.7 -92.9 -3.657
19:34 1019 30.09 848 25.04 -9.9 14.2 75 -13.6 7.6 -92.9 -3.657
19:35 1019 30.09 848 25.04 -9.9 14.2 75 -13.6 7.5 -92.9 -3.657
19:36 1019 30.09 848 25.04 -9.9 14.1 75 -13.6 7.5 -92.9 -3.657
19:37 1019 30.09 848 25.04 -10 14.1 75 -13.6 7.6 -92.9 -3.657
19:38 1019 30.09 848 25.04 -10 14.1 75 -13.6 7.5 -92.9 -3.657
19:39 1019 30.09 848 25.04 -10 14.1 75 -13.6 7.5 -92.9 -3.657
19:40 1019 30.09 848 25.04 -10 14.1 75 -13.6 7.5 -92.9 -3.657
19:41 1019 30.09 848 25.04 -10.1 13.9 75 -13.7 7.4 -92.9 -3.657
19:42 1019 30.09 848 25.04 -10.1 13.8 75 -13.6 7.4 -92.9 -3.657
19:43 1019 30.09 848 25.04 -10.1 13.8 75 -13.7 7.4 -92.9 -3.657
19:44 1019 30.09 848 25.04 -10.1 13.9 75 -13.7 7.4 -92.9 -3.657
19:45 1019 30.09 848 25.04 -10.1 13.9 75 -13.7 7.4 -92.9 -3.657
19:46 1019 30.09 848 25.04 -10.1 13.9 75 -13.8 7.2 -92.9 -3.657
19:47 1019 30.09 848 25.04 -10.1 13.8 75 -13.7 7.4 -92.9 -3.657
19:48 1019 30.09 848 25.04 -10.2 13.7 75 -13.8 7.2 -92.9 -3.657
19:49 1019 30.09 848 25.04 -10.2 13.7 76 -13.7 7.4 -92.9 -3.657
19:50 1019 30.09 848 25.04 -10.2 13.7 75 -13.8 7.2 -92.9 -3.657
19:51 1019 30.09 848 25.04 -10.2 13.7 76 -13.7 7.3 -93 -3.661
19:52 1019 30.09 848 25.04 -10.1 13.8 75 -13.7 7.3 -93 -3.661
19:53 1019 30.09 848 25.04 -10.1 13.8 75 -13.8 7.2 -93 -3.661
19:54 1019 30.09 848 25.04 -10.2 13.6 75 -13.8 7.2 -93 -3.661
19:55 1019 30.09 848 25.04 -10.2 13.7 75 -13.8 7.2 -93 -3.661
19:56 1019 30.09 848 25.04 -10.2 13.7 75 -13.7 7.3 -93 -3.661
19:57 1019 30.09 848 25.04 -10.2 13.7 75 -13.7 7.3 -93 -3.661
19:58 1019 30.09 848 25.04 -10.2 13.6 75 -13.8 7.2 -93 -3.661
19:59 1019 30.09 848 25.04 -10.2 13.6 76 -13.7 7.3 -93 -3.661
20:00 1019 30.09 848 25.04 -10.2 13.6 75 -13.8 7.2 -93 -3.661
20:01 1019 30.09 848 25.04 -10.2 13.7 76 -13.7 7.3 -93 -3.661
20:02 1019 30.09 848 25.04 -10.2 13.7 75 -13.8 7.2 -93 -3.661
20:03 1019 30.09 848 25.04 -10.2 13.7 75 -13.7 7.3 -93 -3.661
20:04 1019 30.09 848 25.04 -10.2 13.7 75 -13.8 7.2 -93 -3.661
20:05 1019 30.09 848 25.04 -10.2 13.6 75 -13.8 7.2 -93 -3.661
20:06 1019 30.09 848 25.04 -10.3 13.5 76 -13.8 7.2 -93 -3.661
20:07 1019 30.09 848 25.04 -10.3 13.5 76 -13.7 7.3 -93 -3.661
20:08 1019 30.09 848 25.04 -10.3 13.5 76 -13.8 7.2 -93 -3.661
20:09 1019 30.09 848 25.04 -10.3 13.5 76 -13.7 7.4 -93 -3.661
20:10 1019 30.09 848 25.04 -10.3 13.5 76 -13.8 7.2 -93 -3.661
20:11 1019 30.09 848 25.04 -10.3 13.5 76 -13.8 7.2 -93 -3.661
20:12 1019 30.09 848 25.04 -10.4 13.4 76 -13.8 7.2 -93 -3.661
20:13 1019 30.09 848 25.04 -10.4 13.4 76 -13.8 7.1 -93 -3.661
20:14 1019 30.09 848 25.04 -10.4 13.3 76 -13.9 7 -93 -3.661
20:15 1019 30.09 848 25.04 -10.4 13.3 76 -13.8 7.1 -93 -3.661
20:16 1019 30.09 848 25.04 -10.4 13.2 76 -13.9 7 -93 -3.661
20:17 1019 30.09 848 25.04 -10.5 13.2 77 -13.8 7.1 -93 -3.661
20:18 1019 30.09 848 25.04 -10.5 13.2 76 -13.9 7.1 -93 -3.661
20:19 1019 30.09 848 25.04 -10.5 13.2 76 -13.8 7.1 -93 -3.661
20:20 1019 30.09 848 25.04 -10.4 13.2 76 -13.8 7.1 -93 -3.661
20:21 1019 30.09 848 25.04 -10.5 13.2 76 -13.9 7 -93 -3.661
20:22 1019 30.09 848 25.04 -10.4 13.2 76 -13.9 7 -93 -3.661
20:23 1019 30.09 848 25.04 -10.5 13.1 76 -13.9 7 -93 -3.661
20:24 1019 30.09 848 25.04 -10.5 13.1 77 -13.9 7 -93 -3.661
20:25 1019 30.09 848 25.04 -10.5 13.2 76 -13.9 7.1 -93 -3.661
20:26 1019 30.09 848 25.04 -10.5 13.1 76 -13.9 7 -93 -3.661
20:27 1019 30.09 848 25.04 -10.6 13 76 -14 6.9 -93 -3.661
20:28 1019 30.09 848 25.04 -10.6 13 76 -13.9 6.9 -93 -3.661
20:29 1019 30.09 848 25.04 -10.6 13 76 -14 6.8 -93 -3.661
20:30 1019 30.09 848 25.04 -10.6 12.9 77 -14 6.8 -93 -3.661
20:31 1019 30.09 848 25.04 -10.7 12.7 77 -14.1 6.7 -93 -3.661
20:32 1019 30.09 848 25.04 -10.8 12.6 77 -14.1 6.7 -93 -3.661
20:33 1019 30.09 848 25.04 -10.8 12.5 77 -14.1 6.7 -93 -3.661
20:34 1019 30.09 848 25.04 -10.8 12.6 77 -14.1 6.6 -93 -3.661
20:35 1019 30.09 848 25.04 -10.8 12.6 77 -14.1 6.7 -93 -3.661
20:36 1019 30.09 848 25.04 -10.8 12.6 77 -14 6.8 -93.1 -3.665
20:37 1019 30.09 848 25.04 -10.7 12.7 77 -14 6.7 -93.1 -3.665
20:38 1019 30.09 848 25.04 -10.7 12.8 77 -14 6.8 -93.1 -3.665
20:39 1019 30.09 848 25.04 -10.6 12.8 76 -14 6.8 -93.1 -3.665
20:40 1019 30.09 848 25.04 -10.6 12.9 76 -14 6.7 -93.1 -3.665
20:41 1019 30.09 848 25.04 -10.6 12.9 76 -14 6.8 -93.1 -3.665
20:42 1019 30.09 848 25.04 -10.7 12.8 77 -14 6.8 -93.1 -3.665
20:43 1019 30.09 848 25.04 -10.6 12.8 77 -14 6.8 -93.1 -3.665
20:44 1019 30.09 848 25.04 -10.6 12.9 76 -14 6.7 -93.1 -3.665
20:45 1019 30.09 848 25.04 -10.6 12.9 76 -14 6.8 -93.1 -3.665
20:46 1019 30.09 848 25.04 -10.6 12.8 76 -14 6.8 -93.1 -3.665
20:47 1019 30.09 848 25.04 -10.6 12.8 76 -14 6.7 -93.1 -3.665
20:48 1019 30.09 848 25.04 -10.7 12.8 77 -14 6.8 -93.1 -3.665
20:49 1019 30.09 848 25.04 -10.7 12.8 76 -14.1 6.7 -93.1 -3.665
20:50 1019 30.09 848 25.04 -10.7 12.7 77 -14 6.7 -93.1 -3.665
20:51 1019 30.09 848 25.04 -10.7 12.8 76 -14.1 6.6 -93.1 -3.665
20:52 1019 30.09 848 25.04 -10.7 12.7 77 -14 6.7 -93.1 -3.665
20:53 1019 30.09 848 25.04 -10.7 12.8 76 -14.1 6.7 -93.1 -3.665
20:54 1019 30.09 848 25.04 -10.7 12.7 77 -14 6.7 -93.1 -3.665
20:55 1019 30.09 848 25.04 -10.6 12.9 77 -14 6.8 -93.1 -3.665
20:56 1019 30.09 848 25.04 -10.6 12.9 76 -14 6.7 -93.1 -3.665
20:57 1019 30.09 848 25.04 -10.7 12.8 76 -14.1 6.7 -93.1 -3.665
20:58 1019 30.09 848 25.04 -10.7 12.8 76 -14.1 6.7 -93.1 -3.665
20:59 1019 30.09 848 25.04 -10.7 12.7 76 -14.2 6.5 -93.1 -3.665
21:00 1019 30.09 848 25.04 -10.8 12.6 76 -14.2 6.5 -93.1 -3.665
21:01 1019 30.09 848 25.04 -10.9 12.4 77 -14.2 6.4 -93.1 -3.665
21:02 1019 30.09 848 25.04 -10.9 12.3 77 -14.2 6.5 -93.1 -3.665
21:03 1019 30.09 848 25.04 -11 12.2 77 -14.2 6.4 -93.1 -3.665
21:04 1019 30.09 848 25.04 -11 12.1 77 -14.2 6.4 -93.1 -3.665
21:05 1019 30.09 848 25.04 -11.1 12.1 78 -14.2 6.4 -93.1 -3.665
21:06 1019 30.09 848 25.04 -11.1 12 78 -14.3 6.3 -93.1 -3.665
21:07 1019 30.09 848 25.04 -11.1 12 77 -14.3 6.2 -93.1 -3.665
21:08 1019 30.09 848 25.04 -11.1 12 78 -14.3 6.3 -93.1 -3.665
21:09 1019 30.09 848 25.04 -11.1 12 78 -14.3 6.3 -93.1 -3.665
21:10 1019 30.09 848 25.04 -11.2 11.9 78 -14.3 6.2 -93.1 -3.665
21:11 1019 30.09 848 25.04 -11.2 11.9 78 -14.4 6.2 -93.1 -3.665
21:12 1019 30.09 848 25.04 -11.2 11.8 78 -14.3 6.3 -93.1 -3.665
21:13 1019 30.09 848 25.04 -11.3 11.8 78 -14.4 6.2 -93.1 -3.665
21:14 1019 30.09 848 25.04 -11.3 11.6 78 -14.4 6 -93.1 -3.665
21:15 1019 30.09 848 25.04 -11.3 11.6 79 -14.3 6.2 -93.1 -3.665
21:16 1019 30.09 848 25.04 -11.3 11.7 78 -14.3 6.2 -93.1 -3.665
21:17 1019 30.09 848 25.04 -11.3 11.7 79 -14.3 6.3 -93.1 -3.665
21:18 1019 30.09 848 25.04 -11.2 11.9 78 -14.4 6.2 -93.1 -3.665
21:19 1019 30.09 848 25.04 -11.2 11.9 78 -14.4 6.1 -93.1 -3.665
21:20 1019 30.09 848 25.04 -11.2 11.8 78 -14.4 6.1 -93.1 -3.665
21:21 1019 30.09 848 25.04 -11.2 11.8 78 -14.4 6.1 -93.1 -3.665
21:22 1019 30.09 848 25.04 -11.3 11.6 78 -14.5 6 -93.1 -3.665
21:23 1019 30.09 848 25.04 -11.4 11.5 78 -14.5 6 -93.1 -3.665
21:24 1018 30.06 848 25.04 -11.5 11.4 78 -14.5 5.8 -93.1 -3.665
21:25 1019 30.09 848 25.04 -11.5 11.3 78 -14.5 5.8 -93.1 -3.665
21:26 1019 30.09 848 25.04 -11.6 11.2 78 -14.6 5.7 -93.1 -3.665
21:27 1019 30.09 848 25.04 -11.7 11 79 -14.6 5.7 -93.1 -3.665
21:28 1019 30.09 848 25.04 -11.7 11 79 -14.6 5.7 -93.1 -3.665
21:29 1019 30.09 848 25.04 -11.7 10.9 79 -14.7 5.6 -93.2 -3.669
21:30 1019 30.09 848 25.04 -11.8 10.7 79 -14.7 5.6 -93.2 -3.669
21:31 1019 30.09 848 25.04 -11.8 10.7 80 -14.7 5.5 -93.2 -3.669
21:32 1019 30.09 848 25.04 -11.9 10.5 80 -14.8 5.4 -93.2 -3.669
21:33 1019 30.09 848 25.04 -12 10.5 80 -14.8 5.4 -93.2 -3.669
21:34 1019 30.09 848 25.04 -12.1 10.3 80 -14.8 5.3 -93.2 -3.669
21:35 1019 30.09 848 25.04 -12.1 10.2 80 -14.8 5.3 -93.2 -3.669
21:36 1019 30.09 848 25.04 -12.1 10.2 80 -14.8 5.3 -93.2 -3.669
21:37 1019 30.09 848 25.04 -12.1 10.2 80 -14.8 5.3 -93.2 -3.669
21:38 1019 30.09 848 25.04 -12.1 10.2 80 -14.9 5.3 -93.2 -3.669
21:39 1019 30.09 848 25.04 -12.1 10.1 81 -14.8 5.4 -93.2 -3.669
21:40 1019 30.09 848 25.04 -12.1 10.2 81 -14.8 5.4 -93.2 -3.669
21:41 1019 30.09 848 25.04 -12.1 10.2 81 -14.8 5.4 -93.2 -3.669
21:42 1019 30.09 848 25.04 -12 10.3 81 -14.7 5.5 -93.2 -3.669
21:43 1019 30.09 848 25.04 -12 10.4 81 -14.6 5.7 -93.2 -3.669
21:44 1019 30.09 848 25.04 -11.9 10.5 81 -14.6 5.7 -93.2 -3.669
21:45 1019 30.09 848 25.04 -11.9 10.6 80 -14.7 5.6 -93.2 -3.669
21:46 1019 30.09 848 25.04 -11.9 10.6 80 -14.6 5.7 -93.2 -3.669
21:47 1019 30.09 848 25.04 -11.9 10.7 80 -14.6 5.7 -93.2 -3.669
21:48 1019 30.09 848 25.04 -11.8 10.8 80 -14.5 5.8 -93.2 -3.669
21:49 1019 30.09 848 25.04 -11.7 10.9 80 -14.5 5.8 -93.2 -3.669
21:50 1019 30.09 848 25.04 -11.7 10.9 80 -14.5 5.8 -93.2 -3.669
21:51 1019 30.09 848 25.04 -11.7 10.9 80 -14.5 5.8 -93.2 -3.669
21:52 1019 30.09 848 25.04 -11.7 11 80 -14.5 5.9 -93.2 -3.669
21:53 1019 30.09 848 25.04 -11.7 11 79 -14.6 5.8 -93.2 -3.669
21:54 1019 30.09 848 25.04 -11.7 10.9 79 -14.6 5.7 -93.2 -3.669
21:55 1019 30.09 848 25.04 -11.7 10.9 80 -14.5 5.9 -93.2 -3.669
21:56 1019 30.09 848 25.04 -11.7 10.9 80 -14.5 5.8 -93.2 -3.669
21:57 1019 30.09 848 25.04 -11.7 11 80 -14.5 6 -93.2 -3.669
21:58 1019 30.09 848 25.04 -11.6 11.1 80 -14.5 6 -93.2 -3.669
21:59 1019 30.09 848 25.04 -11.6 11.1 80 -14.4 6 -93.2 -3.669
22:00 1019 30.09 848 25.04 -11.6 11.1 80 -14.4 6 -93.2 -3.669
22:01 1019 30.09 848 25.04 -11.6 11.1 79 -14.6 5.8 -93.2 -3.669
22:02 1019 30.09 848 25.04 -11.7 11 80 -14.5 5.9 -93.2 -3.669
22:03 1019 30.09 848 25.04 -11.7 10.9 79 -14.6 5.7 -93.2 -3.669
22:04 1019 30.09 848 25.04 -11.8 10.8 80 -14.7 5.6 -93.2 -3.669
22:05 1019 30.09 848 25.04 -11.9 10.7 80 -14.6 5.7 -93.2 -3.669
22:06 1019 30.09 848 25.04 -11.9 10.7 80 -14.6 5.7 -93.2 -3.669
22:07 1019 30.09 848 25.04 -11.8 10.7 80 -14.6 5.8 -93.2 -3.669
22:08 1018 30.06 848 25.04 -11.8 10.8 80 -14.5 5.8 -93.2 -3.669
22:09 1018 30.06 848 25.04 -11.8 10.8 80 -14.6 5.7 -93.2 -3.669
22:10 1019 30.09 848 25.04 -11.8 10.8 80 -14.6 5.7 -93.2 -3.669
22:11 1018 30.06 848 25.04 -11.8 10.7 80 -14.6 5.7 -93.2 -3.669
22:12 1018 30.06 848 25.04 -11.9 10.7 80 -14.7 5.6 -93.2 -3.669
22:13 1018 30.06 848 25.04 -11.9 10.7 81 -14.6 5.8 -93.2 -3.669
22:14 1018 30.06 848 25.04 -11.9 10.7 80 -14.6 5.6 -93.2 -3.669
22:15 1018 30.06 848 25.04 -11.9 10.7 80 -14.6 5.6 -93.2 -3.669
22:16 1018 30.06 848 25.04 -11.9 10.5 80 -14.6 5.6 -93.2 -3.669
22:17 1018 30.06 848 25.04 -11.9 10.5 80 -14.7 5.6 -93.2 -3.669
22:18 1018 30.06 848 25.04 -11.9 10.5 81 -14.6 5.7 -93.2 -3.669
22:19 1018 30.06 848 25.04 -11.9 10.5 80 -14.7 5.5 -93.2 -3.669
22:20 1018 30.06 848 25.04 -12 10.5 80 -14.7 5.6 -93.2 -3.669
22:21 1019 30.09 848 25.04 -12 10.4 81 -14.7 5.6 -93.3 -3.673
22:22 1018 30.06 848 25.04 -12 10.4 81 -14.7 5.6 -93.3 -3.673
22:23 1018 30.06 848 25.04 -12 10.4 81 -14.7 5.6 -93.3 -3.673
22:24 1018 30.06 848 25.04 -12 10.5 81 -14.7 5.6 -93.3 -3.673
22:25 1018 30.06 848 25.04 -12 10.5 80 -14.7 5.5 -93.3 -3.673
22:26 1018 30.06 848 25.04 -12 10.3 80 -14.8 5.4 -93.3 -3.673
22:27 1018 30.06 848 25.04 -12.1 10.3 81 -14.8 5.4 -93.3 -3.673
22:28 1018 30.06 848 25.04 -12.1 10.2 81 -14.8 5.4 -93.3 -3.673
22:29 1018 30.06 848 25.04 -12.2 10.1 81 -14.8 5.4 -93.3 -3.673
22:30 1018 30.06 848 25.04 -12.2 10.1 82 -14.7 5.5 -93.3 -3.673
22:31 1018 30.06 848 25.04 -12.2 10.1 81 -14.7 5.5 -93.3 -3.673
22:32 1018 30.06 848 25.04 -12.2 10.1 82 -14.7 5.5 -93.3 -3.673
22:33 1018 30.06 848 25.04 -12.2 10.1 82 -14.7 5.5 -93.3 -3.673
22:34 1018 30.06 848 25.04 -12.2 10.1 82 -14.7 5.5 -93.3 -3.673
22:35 1018 30.06 848 25.04 -12.2 10.1 82 -14.7 5.6 -93.3 -3.673
22:36 1018 30.06 848 25.04 -12.2 10.1 82 -14.7 5.5 -93.3 -3.673
22:37 1018 30.06 848 25.04 -12.2 10.1 82 -14.7 5.5 -93.3 -3.673
22:38 1018 30.06 848 25.04 -12.2 10.1 81 -14.7 5.5 -93.3 -3.673
22:39 1018 30.06 848 25.04 -12.2 10.1 82 -14.7 5.5 -93.3 -3.673
22:40 1018 30.06 848 25.04 -12.1 10.2 81 -14.7 5.5 -93.3 -3.673
22:41 1018 30.06 848 25.04 -12.1 10.2 81 -14.7 5.5 -93.3 -3.673
22:42 1018 30.06 847 25.01 -12.1 10.2 81 -14.7 5.5 -93.3 -3.673
22:43 1018 30.06 847 25.01 -12.2 10.1 81 -14.7 5.5 -93.3 -3.673
22:44 1018 30.06 848 25.04 -12.2 10.1 81 -14.8 5.4 -93.3 -3.673
22:45 1018 30.06 847 25.01 -12.2 10.1 81 -14.8 5.4 -93.3 -3.673
22:46 1018 30.06 847 25.01 -12.2 10.1 81 -14.8 5.4 -93.3 -3.673
22:47 1018 30.06 848 25.04 -12.2 10 81 -14.8 5.4 -93.3 -3.673
22:48 1018 30.06 847 25.01 -12.2 10 81 -14.8 5.4 -93.3 -3.673
22:49 1018 30.06 847 25.01 -12.3 10 81 -14.8 5.3 -93.3 -3.673
22:50 1018 30.06 847 25.01 -12.3 9.9 82 -14.8 5.4 -93.3 -3.673
22:51 1018 30.06 847 25.01 -12.3 9.9 82 -14.8 5.3 -93.3 -3.673
22:52 1018 30.06 847 25.01 -12.3 9.8 82 -14.8 5.4 -93.3 -3.673
22:53 1018 30.06 847 25.01 -12.3 9.8 82 -14.8 5.4 -93.3 -3.673
22:54 1018 30.06 847 25.01 -12.3 9.8 82 -14.8 5.4 -93.3 -3.673
22:55 1018 30.06 848 25.04 -12.4 9.7 82 -14.8 5.3 -93.3 -3.673
22:56 1018 30.06 848 25.04 -12.4 9.6 82 -14.9 5.2 -93.3 -3.673
22:57 1018 30.06 847 25.01 -12.5 9.5 82 -14.9 5.2 -93.3 -3.673
22:58 1018 30.06 847 25.01 -12.5 9.4 83 -14.9 5.2 -93.3 -3.673
22:59 1018 30.06 847 25.01 -12.5 9.4 83 -14.9 5.2 -93.3 -3.673
23:00 1018 30.06 848 25.04 -12.6 9.4 83 -15 5.1 -93.3 -3.673
23:01 1018 30.06 848 25.04 -12.6 9.3 82 -15 5 -93.3 -3.673
23:02 1018 30.06 847 25.01 -12.6 9.3 83 -15 5 -93.3 -3.673
23:03 1018 30.06 847 25.01 -12.7 9.1 82 -15.2 4.7 -93.3 -3.673
23:04 1018 30.06 848 25.04 -12.8 9 82 -15.3 4.5 -93.3 -3.673
23:05 1018 30.06 847 25.01 -12.9 8.8 83 -15.2 4.6 -93.3 -3.673
23:06 1018 30.06 847 25.01 -12.9 8.7 83 -15.3 4.5 -93.3 -3.673
23:07 1018 30.06 847 25.01 -13 8.6 83 -15.3 4.5 -93.3 -3.673
23:08 1018 30.06 847 25.01 -13 8.6 83 -15.3 4.5 -93.3 -3.673
23:09 1018 30.06 847 25.01 -13.1 8.5 83 -15.4 4.3 -93.3 -3.673
23:10 1018 30.06 847 25.01 -13.1 8.4 83 -15.4 4.2 -93.3 -3.673
23:11 1018 30.06 847 25.01 -13.2 8.3 84 -15.4 4.3 -93.3 -3.673
23:12 1018 30.06 847 25.01 -13.2 8.3 84 -15.3 4.5 -93.3 -3.673
23:13 1018 30.06 847 25.01 -13.2 8.3 84 -15.3 4.4 -93.3 -3.673
23:14 1018 30.06 847 25.01 -13.1 8.4 84 -15.3 4.5 -93.3 -3.673
23:15 1018 30.06 847 25.01 -13.1 8.3 84 -15.2 4.6 -93.3 -3.673
23:16 1018 30.06 847 25.01 -13.1 8.3 84 -15.3 4.5 -93.3 -3.673
23:17 1018 30.06 847 25.01 -13.1 8.4 85 -15.2 4.7 -93.3 -3.673
23:18 1018 30.06 847 25.01 -13.1 8.4 85 -15.2 4.7 -93.3 -3.673
23:19 1018 30.06 847 25.01 -13.1 8.5 85 -15.1 4.8 -93.3 -3.673
23:20 1018 30.06 847 25.01 -13 8.6 85 -15 4.9 -93.3 -3.673
23:21 1018 30.06 847 25.01 -13 8.6 85 -15 5 -93.4 -3.677
23:22 1018 30.06 847 25.01 -13 8.7 84 -15.1 4.9 -93.3 -3.673
23:23 1018 30.06 847 25.01 -13 8.6 84 -15.1 4.8 -93.4 -3.677
23:24 1018 30.06 847 25.01 -13 8.7 85 -15 5 -93.4 -3.677
23:25 1018 30.06 847 25.01 -12.9 8.7 85 -15 5 -93.4 -3.677
23:26 1018 30.06 847 25.01 -12.9 8.7 85 -15 5 -93.4 -3.677
23:27 1018 30.06 847 25.01 -12.9 8.8 85 -14.9 5.2 -93.4 -3.677
23:28 1018 30.06 847 25.01 -12.9 8.9 85 -14.9 5.2 -93.4 -3.677
23:29 1018 30.06 847 25.01 -12.9 8.9 85 -14.9 5.2 -93.4 -3.677
23:30 1018 30.06 847 25.01 -12.8 9 85 -14.8 5.3 -93.4 -3.677
23:31 1018 30.06 847 25.01 -12.8 9 85 -14.9 5.2 -93.4 -3.677
23:32 1018 30.06 847 25.01 -12.8 9 85 -14.8 5.3 -93.4 -3.677
23:33 1018 30.06 847 25.01 -12.8 9 85 -14.8 5.3 -93.4 -3.677
23:34 1018 30.06 847 25.01 -12.8 8.9 85 -14.8 5.3 -93.4 -3.677
23:35 1018 30.06 847 25.01 -12.8 9 85 -14.8 5.3 -93.4 -3.677
23:36 1018 30.06 847 25.01 -12.8 9 85 -14.8 5.4 -93.4 -3.677
23:37 1018 30.06 847 25.01 -12.8 9 85 -14.8 5.4 -93.4 -3.677
23:38 1018 30.06 847 25.01 -12.7 9.1 85 -14.8 5.4 -93.4 -3.677
23:39 1018 30.06 847 25.01 -12.7 9.1 85 -14.8 5.4 -93.4 -3.677
23:40 1018 30.06 847 25.01 -12.8 9.1 85 -14.8 5.4 -93.4 -3.677
23:41 1018 30.06 847 25.01 -12.8 9 85 -14.8 5.4 -93.4 -3.677
23:42 1018 30.06 847 25.01 -12.8 9.1 85 -14.7 5.5 -93.4 -3.677
23:43 1018 30.06 847 25.01 -12.8 9 85 -14.7 5.5 -93.4 -3.677
23:44 1018 30.06 847 25.01 -12.8 9 85 -14.8 5.4 -93.4 -3.677
23:45 1018 30.06 847 25.01 -12.8 9 85 -14.7 5.5 -93.4 -3.677
23:46 1018 30.06 847 25.01 -12.8 9 86 -14.7 5.5 -93.4 -3.677
23:47 1018 30.06 847 25.01 -12.8 9 86 -14.7 5.5 -93.4 -3.677
23:48 1018 30.06 847 25.01 -12.8 9 86 -14.7 5.5 -93.4 -3.677
23:49 1018 30.06 847 25.01 -12.8 9 86 -14.7 5.5 -93.4 -3.677
23:50 1018 30.06 847 25.01 -12.8 8.9 85 -14.8 5.4 -93.4 -3.677
23:51 1018 30.06 847 25.01 -12.9 8.9 85 -14.9 5.2 -93.4 -3.677
23:52 1018 30.06 847 25.01 -12.9 8.8 85 -14.9 5.2 -93.4 -3.677
23:53 1018 30.06 847 25.01 -13 8.6 85 -15 5 -93.4 -3.677
23:54 1018 30.06 847 25.01 -13.1 8.5 85 -15.1 4.7 -93.4 -3.677
23:55 1018 30.06 847 25.01 -13.2 8.2 84 -15.3 4.5 -93.4 -3.677
23:56 1018 30.06 847 25.01 -13.3 8.1 86 -15.2 4.6 -93.4 -3.677
23:57 1018 30.06 847 25.01 -13.3 8.1 86 -15.1 4.8 -93.4 -3.677
23:58 1018 30.06 847 25.01 -13.4 8 86 -15.3 4.5 -93.4 -3.677
23:59 1018 30.06 847 25.01 -13.4 7.8 86 -15.3 4.5 -93.4 -3.677
24:00 1018 30.06 847 25.01 -13.5 7.7 85 -15.5 4.1 -93.4 -3.677